<?xml version="1.0" encoding="UTF-8" standalone="no" ?>
<gpx xmlns="http://www.topografix.com/GPX/1/1" xmlns:xsi="http://www.w3.org/2001/XMLSchema-instance" xsi:schemaLocation="http://www.topografix.com/GPX/1/1 http://www.topografix.com/GPX/1/1/gpx.xsd" version="1.1" creator="VisuGPX - https://www.visugpx.com">
  <metadata>
    <name>Longpre les corps saints _ 13km</name>
    <desc><![CDATA[Walkmeter Marche 25 août 2013 09:07:18]]></desc>
  </metadata>
  <trk>
    <name><![CDATA[Ch en S - Longpres Les Corps Saints]]></name>
    <trkseg>
      <trkpt lat="50.02022" lon="1.98596">
        <ele>5</ele>
        <time>2013-08-25T07:10:20Z</time>
      </trkpt>
      <trkpt lat="50.02027" lon="1.98575">
        <ele>-0.2</ele>
        <time>2013-08-25T07:10:34Z</time>
      </trkpt>
      <trkpt lat="50.0204" lon="1.98567">
        <ele>-5.1</ele>
        <time>2013-08-25T07:10:46Z</time>
      </trkpt>
      <trkpt lat="50.02052" lon="1.98582">
        <ele>-5.6</ele>
        <time>2013-08-25T07:10:59Z</time>
      </trkpt>
      <trkpt lat="50.02063" lon="1.98595">
        <ele>-3.9</ele>
        <time>2013-08-25T07:11:09Z</time>
      </trkpt>
      <trkpt lat="50.02075" lon="1.98607">
        <ele>-2.8</ele>
        <time>2013-08-25T07:11:18Z</time>
      </trkpt>
      <trkpt lat="50.02084" lon="1.98623">
        <ele>-1.3</ele>
        <time>2013-08-25T07:11:28Z</time>
      </trkpt>
      <trkpt lat="50.02094" lon="1.98637">
        <ele>0.3</ele>
        <time>2013-08-25T07:11:38Z</time>
      </trkpt>
      <trkpt lat="50.02104" lon="1.98652">
        <ele>-1.8</ele>
        <time>2013-08-25T07:11:48Z</time>
      </trkpt>
      <trkpt lat="50.02114" lon="1.98667">
        <ele>0.1</ele>
        <time>2013-08-25T07:11:59Z</time>
      </trkpt>
      <trkpt lat="50.02126" lon="1.98679">
        <ele>1.8</ele>
        <time>2013-08-25T07:12:09Z</time>
      </trkpt>
      <trkpt lat="50.02139" lon="1.98689">
        <ele>2.6</ele>
        <time>2013-08-25T07:12:19Z</time>
      </trkpt>
      <trkpt lat="50.0215" lon="1.98702">
        <ele>3.2</ele>
        <time>2013-08-25T07:12:28Z</time>
      </trkpt>
      <trkpt lat="50.02161" lon="1.98716">
        <ele>3.8</ele>
        <time>2013-08-25T07:12:37Z</time>
      </trkpt>
      <trkpt lat="50.02172" lon="1.98729">
        <ele>4.3</ele>
        <time>2013-08-25T07:12:45Z</time>
      </trkpt>
      <trkpt lat="50.02184" lon="1.9874">
        <ele>5</ele>
        <time>2013-08-25T07:12:55Z</time>
      </trkpt>
      <trkpt lat="50.02194" lon="1.98755">
        <ele>2.5</ele>
        <time>2013-08-25T07:13:03Z</time>
      </trkpt>
      <trkpt lat="50.02205" lon="1.98771">
        <ele>4.7</ele>
        <time>2013-08-25T07:13:12Z</time>
      </trkpt>
      <trkpt lat="50.02216" lon="1.98787">
        <ele>5.9</ele>
        <time>2013-08-25T07:13:22Z</time>
      </trkpt>
      <trkpt lat="50.02228" lon="1.98797">
        <ele>6.8</ele>
        <time>2013-08-25T07:13:31Z</time>
      </trkpt>
      <trkpt lat="50.02242" lon="1.98794">
        <ele>7.7</ele>
        <time>2013-08-25T07:13:40Z</time>
      </trkpt>
      <trkpt lat="50.02255" lon="1.98786">
        <ele>8.5</ele>
        <time>2013-08-25T07:13:47Z</time>
      </trkpt>
      <trkpt lat="50.02267" lon="1.98776">
        <ele>9</ele>
        <time>2013-08-25T07:13:57Z</time>
      </trkpt>
      <trkpt lat="50.02281" lon="1.98768">
        <ele>9.8</ele>
        <time>2013-08-25T07:14:08Z</time>
      </trkpt>
      <trkpt lat="50.02293" lon="1.9876">
        <ele>9.4</ele>
        <time>2013-08-25T07:14:17Z</time>
      </trkpt>
      <trkpt lat="50.02305" lon="1.98746">
        <ele>8.8</ele>
        <time>2013-08-25T07:14:26Z</time>
      </trkpt>
      <trkpt lat="50.02318" lon="1.98736">
        <ele>8.1</ele>
        <time>2013-08-25T07:14:36Z</time>
      </trkpt>
      <trkpt lat="50.0233" lon="1.98726">
        <ele>7.5</ele>
        <time>2013-08-25T07:14:45Z</time>
      </trkpt>
      <trkpt lat="50.02334" lon="1.98723">
        <ele>7.2</ele>
        <time>2013-08-25T07:14:50Z</time>
      </trkpt>
      <trkpt lat="50.02349" lon="1.98719">
        <ele>5.2</ele>
        <time>2013-08-25T07:15:05Z</time>
      </trkpt>
      <trkpt lat="50.0236" lon="1.98706">
        <ele>3.9</ele>
        <time>2013-08-25T07:15:14Z</time>
      </trkpt>
      <trkpt lat="50.02372" lon="1.98697">
        <ele>3.5</ele>
        <time>2013-08-25T07:15:23Z</time>
      </trkpt>
      <trkpt lat="50.02385" lon="1.98686">
        <ele>4.5</ele>
        <time>2013-08-25T07:15:32Z</time>
      </trkpt>
      <trkpt lat="50.02397" lon="1.98672">
        <ele>5.3</ele>
        <time>2013-08-25T07:15:42Z</time>
      </trkpt>
      <trkpt lat="50.02407" lon="1.98655">
        <ele>6</ele>
        <time>2013-08-25T07:15:51Z</time>
      </trkpt>
      <trkpt lat="50.02418" lon="1.98642">
        <ele>6.8</ele>
        <time>2013-08-25T07:16:00Z</time>
      </trkpt>
      <trkpt lat="50.02426" lon="1.98638">
        <ele>6.6</ele>
        <time>2013-08-25T07:16:05Z</time>
      </trkpt>
      <trkpt lat="50.0243" lon="1.98621">
        <ele>5.4</ele>
        <time>2013-08-25T07:16:11Z</time>
      </trkpt>
      <trkpt lat="50.02444" lon="1.98619">
        <ele>3.9</ele>
        <time>2013-08-25T07:16:18Z</time>
      </trkpt>
      <trkpt lat="50.02457" lon="1.98613">
        <ele>1.6</ele>
        <time>2013-08-25T07:16:29Z</time>
      </trkpt>
      <trkpt lat="50.02463" lon="1.98615">
        <ele>0.2</ele>
        <time>2013-08-25T07:16:36Z</time>
      </trkpt>
      <trkpt lat="50.02475" lon="1.98605">
        <ele>2.6</ele>
        <time>2013-08-25T07:16:50Z</time>
      </trkpt>
      <trkpt lat="50.02489" lon="1.98596">
        <ele>3.4</ele>
        <time>2013-08-25T07:16:57Z</time>
      </trkpt>
      <trkpt lat="50.025" lon="1.9858">
        <ele>4.1</ele>
        <time>2013-08-25T07:17:06Z</time>
      </trkpt>
      <trkpt lat="50.02511" lon="1.98568">
        <ele>4.7</ele>
        <time>2013-08-25T07:17:15Z</time>
      </trkpt>
      <trkpt lat="50.02523" lon="1.98557">
        <ele>5.8</ele>
        <time>2013-08-25T07:17:29Z</time>
      </trkpt>
      <trkpt lat="50.02532" lon="1.98539">
        <ele>6.4</ele>
        <time>2013-08-25T07:17:38Z</time>
      </trkpt>
      <trkpt lat="50.02545" lon="1.9853">
        <ele>6.9</ele>
        <time>2013-08-25T07:17:47Z</time>
      </trkpt>
      <trkpt lat="50.02555" lon="1.98524">
        <ele>7.3</ele>
        <time>2013-08-25T07:17:53Z</time>
      </trkpt>
      <trkpt lat="50.02569" lon="1.98528">
        <ele>7.7</ele>
        <time>2013-08-25T07:18:00Z</time>
      </trkpt>
      <trkpt lat="50.02578" lon="1.98511">
        <ele>8.6</ele>
        <time>2013-08-25T07:18:15Z</time>
      </trkpt>
      <trkpt lat="50.02589" lon="1.98495">
        <ele>8.9</ele>
        <time>2013-08-25T07:18:23Z</time>
      </trkpt>
      <trkpt lat="50.02601" lon="1.98485">
        <ele>8.3</ele>
        <time>2013-08-25T07:18:31Z</time>
      </trkpt>
      <trkpt lat="50.02611" lon="1.98477">
        <ele>7</ele>
        <time>2013-08-25T07:18:48Z</time>
      </trkpt>
      <trkpt lat="50.02616" lon="1.98497">
        <ele>5.9</ele>
        <time>2013-08-25T07:19:05Z</time>
      </trkpt>
      <trkpt lat="50.02625" lon="1.98514">
        <ele>5.2</ele>
        <time>2013-08-25T07:19:22Z</time>
      </trkpt>
      <trkpt lat="50.02633" lon="1.98532">
        <ele>4.9</ele>
        <time>2013-08-25T07:19:31Z</time>
      </trkpt>
      <trkpt lat="50.02651" lon="1.98566">
        <ele>4.1</ele>
        <time>2013-08-25T07:19:52Z</time>
      </trkpt>
      <trkpt lat="50.02654" lon="1.9858">
        <ele>3.5</ele>
        <time>2013-08-25T07:20:09Z</time>
      </trkpt>
      <trkpt lat="50.02663" lon="1.98596">
        <ele>3.4</ele>
        <time>2013-08-25T07:20:13Z</time>
      </trkpt>
      <trkpt lat="50.02661" lon="1.98618">
        <ele>3</ele>
        <time>2013-08-25T07:20:22Z</time>
      </trkpt>
      <trkpt lat="50.02662" lon="1.98644">
        <ele>2.6</ele>
        <time>2013-08-25T07:20:36Z</time>
      </trkpt>
      <trkpt lat="50.02674" lon="1.98658">
        <ele>2.2</ele>
        <time>2013-08-25T07:20:47Z</time>
      </trkpt>
      <trkpt lat="50.02678" lon="1.98682">
        <ele>1.9</ele>
        <time>2013-08-25T07:20:56Z</time>
      </trkpt>
      <trkpt lat="50.02681" lon="1.98705">
        <ele>1.4</ele>
        <time>2013-08-25T07:21:11Z</time>
      </trkpt>
      <trkpt lat="50.02684" lon="1.98726">
        <ele>1.1</ele>
        <time>2013-08-25T07:21:19Z</time>
      </trkpt>
      <trkpt lat="50.02698" lon="1.9872">
        <ele>0.7</ele>
        <time>2013-08-25T07:21:32Z</time>
      </trkpt>
      <trkpt lat="50.02712" lon="1.98719">
        <ele>0.5</ele>
        <time>2013-08-25T07:21:38Z</time>
      </trkpt>
      <trkpt lat="50.02716" lon="1.98741">
        <ele>7</ele>
        <time>2013-08-25T07:21:51Z</time>
      </trkpt>
      <trkpt lat="50.02719" lon="1.98766">
        <ele>1.3</ele>
        <time>2013-08-25T07:21:59Z</time>
      </trkpt>
      <trkpt lat="50.02722" lon="1.98787">
        <ele>2.8</ele>
        <time>2013-08-25T07:22:07Z</time>
      </trkpt>
      <trkpt lat="50.02733" lon="1.98802">
        <ele>4.7</ele>
        <time>2013-08-25T07:22:23Z</time>
      </trkpt>
      <trkpt lat="50.02738" lon="1.98823">
        <ele>6.1</ele>
        <time>2013-08-25T07:22:38Z</time>
      </trkpt>
      <trkpt lat="50.02749" lon="1.98836">
        <ele>6.4</ele>
        <time>2013-08-25T07:22:53Z</time>
      </trkpt>
      <trkpt lat="50.02754" lon="1.98856">
        <ele>6.6</ele>
        <time>2013-08-25T07:23:05Z</time>
      </trkpt>
      <trkpt lat="50.02758" lon="1.98876">
        <ele>6.8</ele>
        <time>2013-08-25T07:23:15Z</time>
      </trkpt>
      <trkpt lat="50.02765" lon="1.98896">
        <ele>7</ele>
        <time>2013-08-25T07:23:27Z</time>
      </trkpt>
      <trkpt lat="50.02774" lon="1.98916">
        <ele>7.4</ele>
        <time>2013-08-25T07:23:46Z</time>
      </trkpt>
      <trkpt lat="50.02786" lon="1.98939">
        <ele>7.5</ele>
        <time>2013-08-25T07:23:52Z</time>
      </trkpt>
      <trkpt lat="50.02793" lon="1.98957">
        <ele>8</ele>
        <time>2013-08-25T07:24:12Z</time>
      </trkpt>
      <trkpt lat="50.0279" lon="1.98979">
        <ele>8.3</ele>
        <time>2013-08-25T07:24:28Z</time>
      </trkpt>
      <trkpt lat="50.02796" lon="1.99">
        <ele>8.4</ele>
        <time>2013-08-25T07:24:35Z</time>
      </trkpt>
      <trkpt lat="50.0281" lon="1.99014">
        <ele>8.7</ele>
        <time>2013-08-25T07:24:47Z</time>
      </trkpt>
      <trkpt lat="50.02817" lon="1.99034">
        <ele>8.9</ele>
        <time>2013-08-25T07:25:01Z</time>
      </trkpt>
      <trkpt lat="50.02822" lon="1.99054">
        <ele>5</ele>
        <time>2013-08-25T07:25:10Z</time>
      </trkpt>
      <trkpt lat="50.02829" lon="1.99073">
        <ele>4.8</ele>
        <time>2013-08-25T07:25:18Z</time>
      </trkpt>
      <trkpt lat="50.02839" lon="1.99088">
        <ele>4.4</ele>
        <time>2013-08-25T07:25:30Z</time>
      </trkpt>
      <trkpt lat="50.02845" lon="1.99108">
        <ele>3.8</ele>
        <time>2013-08-25T07:25:53Z</time>
      </trkpt>
      <trkpt lat="50.02848" lon="1.99116">
        <ele>3.7</ele>
        <time>2013-08-25T07:25:56Z</time>
      </trkpt>
      <trkpt lat="50.0286" lon="1.99128">
        <ele>3.5</ele>
        <time>2013-08-25T07:26:03Z</time>
      </trkpt>
      <trkpt lat="50.02866" lon="1.99148">
        <ele>3.2</ele>
        <time>2013-08-25T07:26:13Z</time>
      </trkpt>
      <trkpt lat="50.02867" lon="1.9917">
        <ele>2.9</ele>
        <time>2013-08-25T07:26:26Z</time>
      </trkpt>
      <trkpt lat="50.02874" lon="1.99189">
        <ele>2.6</ele>
        <time>2013-08-25T07:26:35Z</time>
      </trkpt>
      <trkpt lat="50.02876" lon="1.99209">
        <ele>2.2</ele>
        <time>2013-08-25T07:26:49Z</time>
      </trkpt>
      <trkpt lat="50.02886" lon="1.99226">
        <ele>2.6</ele>
        <time>2013-08-25T07:27:06Z</time>
      </trkpt>
      <trkpt lat="50.02898" lon="1.99237">
        <ele>3.2</ele>
        <time>2013-08-25T07:27:16Z</time>
      </trkpt>
      <trkpt lat="50.02904" lon="1.9925">
        <ele>4.1</ele>
        <time>2013-08-25T07:27:31Z</time>
      </trkpt>
      <trkpt lat="50.02901" lon="1.99273">
        <ele>4.4</ele>
        <time>2013-08-25T07:27:36Z</time>
      </trkpt>
      <trkpt lat="50.02907" lon="1.99292">
        <ele>4.9</ele>
        <time>2013-08-25T07:27:44Z</time>
      </trkpt>
      <trkpt lat="50.02915" lon="1.99311">
        <ele>3</ele>
        <time>2013-08-25T07:27:51Z</time>
      </trkpt>
      <trkpt lat="50.02925" lon="1.99325">
        <ele>1.8</ele>
        <time>2013-08-25T07:28:03Z</time>
      </trkpt>
      <trkpt lat="50.02932" lon="1.99346">
        <ele>2.9</ele>
        <time>2013-08-25T07:28:13Z</time>
      </trkpt>
      <trkpt lat="50.02942" lon="1.99362">
        <ele>3.6</ele>
        <time>2013-08-25T07:28:26Z</time>
      </trkpt>
      <trkpt lat="50.02946" lon="1.99383">
        <ele>2.1</ele>
        <time>2013-08-25T07:28:36Z</time>
      </trkpt>
      <trkpt lat="50.0295" lon="1.99403">
        <ele>1.8</ele>
        <time>2013-08-25T07:28:47Z</time>
      </trkpt>
      <trkpt lat="50.02956" lon="1.99423">
        <ele>3.7</ele>
        <time>2013-08-25T07:28:55Z</time>
      </trkpt>
      <trkpt lat="50.0297" lon="1.99428">
        <ele>6.7</ele>
        <time>2013-08-25T07:29:03Z</time>
      </trkpt>
      <trkpt lat="50.02975" lon="1.99446">
        <ele>4.6</ele>
        <time>2013-08-25T07:29:18Z</time>
      </trkpt>
      <trkpt lat="50.02972" lon="1.99449">
        <ele>4</ele>
        <time>2013-08-25T07:29:22Z</time>
      </trkpt>
      <trkpt lat="50.0298" lon="1.9947">
        <ele>3</ele>
        <time>2013-08-25T07:29:29Z</time>
      </trkpt>
      <trkpt lat="50.02988" lon="1.99488">
        <ele>3.2</ele>
        <time>2013-08-25T07:29:34Z</time>
      </trkpt>
      <trkpt lat="50.02996" lon="1.99507">
        <ele>3.8</ele>
        <time>2013-08-25T07:29:46Z</time>
      </trkpt>
      <trkpt lat="50.03009" lon="1.99517">
        <ele>4.2</ele>
        <time>2013-08-25T07:29:55Z</time>
      </trkpt>
      <trkpt lat="50.0301" lon="1.99539">
        <ele>4.9</ele>
        <time>2013-08-25T07:30:08Z</time>
      </trkpt>
      <trkpt lat="50.03013" lon="1.99545">
        <ele>5</ele>
        <time>2013-08-25T07:30:11Z</time>
      </trkpt>
      <trkpt lat="50.0302" lon="1.99553">
        <ele>5.5</ele>
        <time>2013-08-25T07:30:22Z</time>
      </trkpt>
      <trkpt lat="50.03019" lon="1.99575">
        <ele>5.9</ele>
        <time>2013-08-25T07:30:30Z</time>
      </trkpt>
      <trkpt lat="50.03024" lon="1.99595">
        <ele>6.6</ele>
        <time>2013-08-25T07:30:45Z</time>
      </trkpt>
      <trkpt lat="50.03021" lon="1.99598">
        <ele>7.1</ele>
        <time>2013-08-25T07:30:55Z</time>
      </trkpt>
      <trkpt lat="50.03024" lon="1.9962">
        <ele>7.6</ele>
        <time>2013-08-25T07:31:04Z</time>
      </trkpt>
      <trkpt lat="50.03019" lon="1.99629">
        <ele>8</ele>
        <time>2013-08-25T07:31:14Z</time>
      </trkpt>
      <trkpt lat="50.03016" lon="1.99613">
        <ele>8.4</ele>
        <time>2013-08-25T07:31:21Z</time>
      </trkpt>
      <trkpt lat="50.03005" lon="1.99625">
        <ele>9</ele>
        <time>2013-08-25T07:31:39Z</time>
      </trkpt>
      <trkpt lat="50.02991" lon="1.9964">
        <ele>9.8</ele>
        <time>2013-08-25T07:31:48Z</time>
      </trkpt>
      <trkpt lat="50.02984" lon="1.99662">
        <ele>10.4</ele>
        <time>2013-08-25T07:31:54Z</time>
      </trkpt>
      <trkpt lat="50.02974" lon="1.99677">
        <ele>10.9</ele>
        <time>2013-08-25T07:32:03Z</time>
      </trkpt>
      <trkpt lat="50.02966" lon="1.99696">
        <ele>9.6</ele>
        <time>2013-08-25T07:32:13Z</time>
      </trkpt>
      <trkpt lat="50.02953" lon="1.99707">
        <ele>7.4</ele>
        <time>2013-08-25T07:32:24Z</time>
      </trkpt>
      <trkpt lat="50.02941" lon="1.99719">
        <ele>6.4</ele>
        <time>2013-08-25T07:32:34Z</time>
      </trkpt>
      <trkpt lat="50.02927" lon="1.99725">
        <ele>7.2</ele>
        <time>2013-08-25T07:32:45Z</time>
      </trkpt>
      <trkpt lat="50.02912" lon="1.99729">
        <ele>8</ele>
        <time>2013-08-25T07:32:55Z</time>
      </trkpt>
      <trkpt lat="50.02899" lon="1.99733">
        <ele>8.8</ele>
        <time>2013-08-25T07:33:06Z</time>
      </trkpt>
      <trkpt lat="50.02885" lon="1.99737">
        <ele>8.7</ele>
        <time>2013-08-25T07:33:16Z</time>
      </trkpt>
      <trkpt lat="50.02873" lon="1.99746">
        <ele>8.3</ele>
        <time>2013-08-25T07:33:26Z</time>
      </trkpt>
      <trkpt lat="50.02861" lon="1.99758">
        <ele>7.8</ele>
        <time>2013-08-25T07:33:38Z</time>
      </trkpt>
      <trkpt lat="50.02852" lon="1.99774">
        <ele>7.3</ele>
        <time>2013-08-25T07:33:49Z</time>
      </trkpt>
      <trkpt lat="50.02844" lon="1.99791">
        <ele>6.8</ele>
        <time>2013-08-25T07:34:01Z</time>
      </trkpt>
      <trkpt lat="50.02835" lon="1.99809">
        <ele>6.4</ele>
        <time>2013-08-25T07:34:11Z</time>
      </trkpt>
      <trkpt lat="50.02826" lon="1.99824">
        <ele>6.1</ele>
        <time>2013-08-25T07:34:19Z</time>
      </trkpt>
      <trkpt lat="50.02815" lon="1.9984">
        <ele>8.2</ele>
        <time>2013-08-25T07:34:29Z</time>
      </trkpt>
      <trkpt lat="50.02805" lon="1.99854">
        <ele>9.4</ele>
        <time>2013-08-25T07:34:39Z</time>
      </trkpt>
      <trkpt lat="50.02795" lon="1.99871">
        <ele>9.9</ele>
        <time>2013-08-25T07:34:48Z</time>
      </trkpt>
      <trkpt lat="50.02785" lon="1.99887">
        <ele>10.4</ele>
        <time>2013-08-25T07:34:58Z</time>
      </trkpt>
      <trkpt lat="50.02775" lon="1.99902">
        <ele>10.9</ele>
        <time>2013-08-25T07:35:08Z</time>
      </trkpt>
      <trkpt lat="50.02766" lon="1.99918">
        <ele>11.4</ele>
        <time>2013-08-25T07:35:18Z</time>
      </trkpt>
      <trkpt lat="50.02755" lon="1.99931">
        <ele>11.9</ele>
        <time>2013-08-25T07:35:27Z</time>
      </trkpt>
      <trkpt lat="50.02745" lon="1.99947">
        <ele>8.8</ele>
        <time>2013-08-25T07:35:37Z</time>
      </trkpt>
      <trkpt lat="50.02735" lon="1.99965">
        <ele>9.9</ele>
        <time>2013-08-25T07:35:46Z</time>
      </trkpt>
      <trkpt lat="50.02725" lon="1.99981">
        <ele>10</ele>
        <time>2013-08-25T07:35:56Z</time>
      </trkpt>
      <trkpt lat="50.02714" lon="1.99995">
        <ele>7.9</ele>
        <time>2013-08-25T07:36:08Z</time>
      </trkpt>
      <trkpt lat="50.02703" lon="2.00008">
        <ele>6.9</ele>
        <time>2013-08-25T07:36:19Z</time>
      </trkpt>
      <trkpt lat="50.02692" lon="2.00023">
        <ele>6.6</ele>
        <time>2013-08-25T07:36:30Z</time>
      </trkpt>
      <trkpt lat="50.02681" lon="2.00038">
        <ele>6.4</ele>
        <time>2013-08-25T07:36:41Z</time>
      </trkpt>
      <trkpt lat="50.02671" lon="2.00052">
        <ele>6.2</ele>
        <time>2013-08-25T07:36:51Z</time>
      </trkpt>
      <trkpt lat="50.02659" lon="2.00065">
        <ele>5.9</ele>
        <time>2013-08-25T07:37:02Z</time>
      </trkpt>
      <trkpt lat="50.02647" lon="2.00076">
        <ele>5.7</ele>
        <time>2013-08-25T07:37:14Z</time>
      </trkpt>
      <trkpt lat="50.02636" lon="2.00091">
        <ele>5.5</ele>
        <time>2013-08-25T07:37:24Z</time>
      </trkpt>
      <trkpt lat="50.02625" lon="2.00104">
        <ele>5.2</ele>
        <time>2013-08-25T07:37:37Z</time>
      </trkpt>
      <trkpt lat="50.02614" lon="2.00117">
        <ele>5</ele>
        <time>2013-08-25T07:37:45Z</time>
      </trkpt>
      <trkpt lat="50.02603" lon="2.0013">
        <ele>4.8</ele>
        <time>2013-08-25T07:37:56Z</time>
      </trkpt>
      <trkpt lat="50.02593" lon="2.00145">
        <ele>4.6</ele>
        <time>2013-08-25T07:38:06Z</time>
      </trkpt>
      <trkpt lat="50.02583" lon="2.00161">
        <ele>4.4</ele>
        <time>2013-08-25T07:38:16Z</time>
      </trkpt>
      <trkpt lat="50.02573" lon="2.00178">
        <ele>4.1</ele>
        <time>2013-08-25T07:38:26Z</time>
      </trkpt>
      <trkpt lat="50.02563" lon="2.00193">
        <ele>4.9</ele>
        <time>2013-08-25T07:38:38Z</time>
      </trkpt>
      <trkpt lat="50.02554" lon="2.0021">
        <ele>6.6</ele>
        <time>2013-08-25T07:38:47Z</time>
      </trkpt>
      <trkpt lat="50.02546" lon="2.0023">
        <ele>8.6</ele>
        <time>2013-08-25T07:38:56Z</time>
      </trkpt>
      <trkpt lat="50.0254" lon="2.00248">
        <ele>10.7</ele>
        <time>2013-08-25T07:39:05Z</time>
      </trkpt>
      <trkpt lat="50.02532" lon="2.00267">
        <ele>10.1</ele>
        <time>2013-08-25T07:39:14Z</time>
      </trkpt>
      <trkpt lat="50.02523" lon="2.00285">
        <ele>9.3</ele>
        <time>2013-08-25T07:39:27Z</time>
      </trkpt>
      <trkpt lat="50.0252" lon="2.00307">
        <ele>8.7</ele>
        <time>2013-08-25T07:39:36Z</time>
      </trkpt>
      <trkpt lat="50.02515" lon="2.00326">
        <ele>8.2</ele>
        <time>2013-08-25T07:39:44Z</time>
      </trkpt>
      <trkpt lat="50.02509" lon="2.00345">
        <ele>7.3</ele>
        <time>2013-08-25T07:39:57Z</time>
      </trkpt>
      <trkpt lat="50.02502" lon="2.00364">
        <ele>5.6</ele>
        <time>2013-08-25T07:40:07Z</time>
      </trkpt>
      <trkpt lat="50.02498" lon="2.00384">
        <ele>4.8</ele>
        <time>2013-08-25T07:40:17Z</time>
      </trkpt>
      <trkpt lat="50.02497" lon="2.00406">
        <ele>7</ele>
        <time>2013-08-25T07:40:29Z</time>
      </trkpt>
      <trkpt lat="50.02494" lon="2.00427">
        <ele>7.8</ele>
        <time>2013-08-25T07:40:38Z</time>
      </trkpt>
      <trkpt lat="50.02487" lon="2.00447">
        <ele>8.7</ele>
        <time>2013-08-25T07:40:48Z</time>
      </trkpt>
      <trkpt lat="50.02478" lon="2.00465">
        <ele>9.7</ele>
        <time>2013-08-25T07:41:00Z</time>
      </trkpt>
      <trkpt lat="50.02468" lon="2.00481">
        <ele>12</ele>
        <time>2013-08-25T07:41:07Z</time>
      </trkpt>
      <trkpt lat="50.02458" lon="2.00497">
        <ele>10.9</ele>
        <time>2013-08-25T07:41:16Z</time>
      </trkpt>
      <trkpt lat="50.02448" lon="2.00512">
        <ele>9.6</ele>
        <time>2013-08-25T07:41:27Z</time>
      </trkpt>
      <trkpt lat="50.02435" lon="2.00522">
        <ele>8.5</ele>
        <time>2013-08-25T07:41:34Z</time>
      </trkpt>
      <trkpt lat="50.02423" lon="2.00531">
        <ele>9.8</ele>
        <time>2013-08-25T07:41:45Z</time>
      </trkpt>
      <trkpt lat="50.02409" lon="2.00531">
        <ele>11.9</ele>
        <time>2013-08-25T07:41:55Z</time>
      </trkpt>
      <trkpt lat="50.02396" lon="2.00542">
        <ele>10.8</ele>
        <time>2013-08-25T07:42:05Z</time>
      </trkpt>
      <trkpt lat="50.02383" lon="2.00553">
        <ele>9.8</ele>
        <time>2013-08-25T07:42:14Z</time>
      </trkpt>
      <trkpt lat="50.02371" lon="2.00563">
        <ele>9.2</ele>
        <time>2013-08-25T07:42:23Z</time>
      </trkpt>
      <trkpt lat="50.02358" lon="2.00573">
        <ele>9.9</ele>
        <time>2013-08-25T07:42:33Z</time>
      </trkpt>
      <trkpt lat="50.02347" lon="2.00586">
        <ele>10.8</ele>
        <time>2013-08-25T07:42:44Z</time>
      </trkpt>
      <trkpt lat="50.02337" lon="2.006">
        <ele>11.5</ele>
        <time>2013-08-25T07:42:54Z</time>
      </trkpt>
      <trkpt lat="50.0233" lon="2.00623">
        <ele>11.7</ele>
        <time>2013-08-25T07:43:02Z</time>
      </trkpt>
      <trkpt lat="50.02328" lon="2.00646">
        <ele>10.5</ele>
        <time>2013-08-25T07:43:11Z</time>
      </trkpt>
      <trkpt lat="50.02327" lon="2.00667">
        <ele>8.5</ele>
        <time>2013-08-25T07:43:24Z</time>
      </trkpt>
      <trkpt lat="50.02332" lon="2.00688">
        <ele>5.9</ele>
        <time>2013-08-25T07:43:36Z</time>
      </trkpt>
      <trkpt lat="50.02336" lon="2.00709">
        <ele>5.6</ele>
        <time>2013-08-25T07:43:45Z</time>
      </trkpt>
      <trkpt lat="50.02339" lon="2.00731">
        <ele>5.3</ele>
        <time>2013-08-25T07:43:55Z</time>
      </trkpt>
      <trkpt lat="50.02344" lon="2.00752">
        <ele>4.5</ele>
        <time>2013-08-25T07:44:08Z</time>
      </trkpt>
      <trkpt lat="50.02351" lon="2.00771">
        <ele>4.2</ele>
        <time>2013-08-25T07:44:17Z</time>
      </trkpt>
      <trkpt lat="50.02358" lon="2.00791">
        <ele>4.7</ele>
        <time>2013-08-25T07:44:28Z</time>
      </trkpt>
      <trkpt lat="50.02367" lon="2.00809">
        <ele>5</ele>
        <time>2013-08-25T07:44:37Z</time>
      </trkpt>
      <trkpt lat="50.0237" lon="2.0083">
        <ele>5.5</ele>
        <time>2013-08-25T07:44:48Z</time>
      </trkpt>
      <trkpt lat="50.02369" lon="2.00853">
        <ele>5.9</ele>
        <time>2013-08-25T07:44:58Z</time>
      </trkpt>
      <trkpt lat="50.02362" lon="2.00872">
        <ele>6.2</ele>
        <time>2013-08-25T07:45:08Z</time>
      </trkpt>
      <trkpt lat="50.0236" lon="2.00893">
        <ele>6.6</ele>
        <time>2013-08-25T07:45:18Z</time>
      </trkpt>
      <trkpt lat="50.0236" lon="2.00914">
        <ele>6.8</ele>
        <time>2013-08-25T07:45:28Z</time>
      </trkpt>
      <trkpt lat="50.02362" lon="2.00936">
        <ele>4.4</ele>
        <time>2013-08-25T07:45:38Z</time>
      </trkpt>
      <trkpt lat="50.02364" lon="2.00957">
        <ele>2.3</ele>
        <time>2013-08-25T07:45:48Z</time>
      </trkpt>
      <trkpt lat="50.02361" lon="2.00979">
        <ele>0.8</ele>
        <time>2013-08-25T07:45:57Z</time>
      </trkpt>
      <trkpt lat="50.02355" lon="2.01">
        <ele>1.1</ele>
        <time>2013-08-25T07:46:08Z</time>
      </trkpt>
      <trkpt lat="50.02351" lon="2.0102">
        <ele>3</ele>
        <time>2013-08-25T07:46:18Z</time>
      </trkpt>
      <trkpt lat="50.02347" lon="2.01041">
        <ele>1.8</ele>
        <time>2013-08-25T07:46:27Z</time>
      </trkpt>
      <trkpt lat="50.02347" lon="2.01063">
        <ele>0.4</ele>
        <time>2013-08-25T07:46:37Z</time>
      </trkpt>
      <trkpt lat="50.02348" lon="2.01085">
        <ele>-0.6</ele>
        <time>2013-08-25T07:46:47Z</time>
      </trkpt>
      <trkpt lat="50.02347" lon="2.01106">
        <ele>-1.5</ele>
        <time>2013-08-25T07:46:59Z</time>
      </trkpt>
      <trkpt lat="50.02346" lon="2.01129">
        <ele>-2.3</ele>
        <time>2013-08-25T07:47:09Z</time>
      </trkpt>
      <trkpt lat="50.02346" lon="2.0115">
        <ele>-3.3</ele>
        <time>2013-08-25T07:47:20Z</time>
      </trkpt>
      <trkpt lat="50.02347" lon="2.01173">
        <ele>-5</ele>
        <time>2013-08-25T07:47:31Z</time>
      </trkpt>
      <trkpt lat="50.02347" lon="2.01195">
        <ele>-4.5</ele>
        <time>2013-08-25T07:47:39Z</time>
      </trkpt>
      <trkpt lat="50.02344" lon="2.01216">
        <ele>-3.4</ele>
        <time>2013-08-25T07:47:47Z</time>
      </trkpt>
      <trkpt lat="50.02342" lon="2.01239">
        <ele>-2</ele>
        <time>2013-08-25T07:47:57Z</time>
      </trkpt>
      <trkpt lat="50.02341" lon="2.01262">
        <ele>2.4</ele>
        <time>2013-08-25T07:48:09Z</time>
      </trkpt>
      <trkpt lat="50.02337" lon="2.01283">
        <ele>3.9</ele>
        <time>2013-08-25T07:48:18Z</time>
      </trkpt>
      <trkpt lat="50.02333" lon="2.01304">
        <ele>6</ele>
        <time>2013-08-25T07:48:28Z</time>
      </trkpt>
      <trkpt lat="50.02325" lon="2.01323">
        <ele>5.7</ele>
        <time>2013-08-25T07:48:37Z</time>
      </trkpt>
      <trkpt lat="50.02322" lon="2.01345">
        <ele>5.2</ele>
        <time>2013-08-25T07:48:50Z</time>
      </trkpt>
      <trkpt lat="50.02321" lon="2.01367">
        <ele>4.6</ele>
        <time>2013-08-25T07:49:01Z</time>
      </trkpt>
      <trkpt lat="50.0232" lon="2.01391">
        <ele>3.9</ele>
        <time>2013-08-25T07:49:10Z</time>
      </trkpt>
      <trkpt lat="50.02321" lon="2.01412">
        <ele>3.2</ele>
        <time>2013-08-25T07:49:18Z</time>
      </trkpt>
      <trkpt lat="50.02322" lon="2.01433">
        <ele>2.4</ele>
        <time>2013-08-25T07:49:26Z</time>
      </trkpt>
      <trkpt lat="50.02324" lon="2.01455">
        <ele>2.3</ele>
        <time>2013-08-25T07:49:35Z</time>
      </trkpt>
      <trkpt lat="50.02328" lon="2.01475">
        <ele>3.2</ele>
        <time>2013-08-25T07:49:45Z</time>
      </trkpt>
      <trkpt lat="50.02329" lon="2.01497">
        <ele>4.1</ele>
        <time>2013-08-25T07:49:55Z</time>
      </trkpt>
      <trkpt lat="50.02325" lon="2.01519">
        <ele>5.3</ele>
        <time>2013-08-25T07:50:07Z</time>
      </trkpt>
      <trkpt lat="50.02328" lon="2.0154">
        <ele>7.7</ele>
        <time>2013-08-25T07:50:16Z</time>
      </trkpt>
      <trkpt lat="50.02331" lon="2.01562">
        <ele>5.5</ele>
        <time>2013-08-25T07:50:27Z</time>
      </trkpt>
      <trkpt lat="50.02323" lon="2.01581">
        <ele>5.6</ele>
        <time>2013-08-25T07:50:37Z</time>
      </trkpt>
      <trkpt lat="50.02315" lon="2.01599">
        <ele>6.3</ele>
        <time>2013-08-25T07:50:48Z</time>
      </trkpt>
      <trkpt lat="50.02308" lon="2.01619">
        <ele>7</ele>
        <time>2013-08-25T07:50:57Z</time>
      </trkpt>
      <trkpt lat="50.023" lon="2.01637">
        <ele>7.8</ele>
        <time>2013-08-25T07:51:08Z</time>
      </trkpt>
      <trkpt lat="50.02289" lon="2.01651">
        <ele>8.5</ele>
        <time>2013-08-25T07:51:17Z</time>
      </trkpt>
      <trkpt lat="50.02278" lon="2.01666">
        <ele>9.2</ele>
        <time>2013-08-25T07:51:24Z</time>
      </trkpt>
      <trkpt lat="50.02268" lon="2.01681">
        <ele>10.1</ele>
        <time>2013-08-25T07:51:35Z</time>
      </trkpt>
      <trkpt lat="50.02257" lon="2.01694">
        <ele>11</ele>
        <time>2013-08-25T07:51:45Z</time>
      </trkpt>
      <trkpt lat="50.02245" lon="2.01707">
        <ele>11.8</ele>
        <time>2013-08-25T07:51:54Z</time>
      </trkpt>
      <trkpt lat="50.02236" lon="2.01724">
        <ele>12.7</ele>
        <time>2013-08-25T07:52:04Z</time>
      </trkpt>
      <trkpt lat="50.02228" lon="2.01742">
        <ele>13.5</ele>
        <time>2013-08-25T07:52:13Z</time>
      </trkpt>
      <trkpt lat="50.02223" lon="2.01762">
        <ele>14.5</ele>
        <time>2013-08-25T07:52:21Z</time>
      </trkpt>
      <trkpt lat="50.02218" lon="2.01782">
        <ele>13.7</ele>
        <time>2013-08-25T07:52:31Z</time>
      </trkpt>
      <trkpt lat="50.02212" lon="2.01802">
        <ele>12.5</ele>
        <time>2013-08-25T07:52:42Z</time>
      </trkpt>
      <trkpt lat="50.02208" lon="2.01825">
        <ele>11.7</ele>
        <time>2013-08-25T07:52:53Z</time>
      </trkpt>
      <trkpt lat="50.02205" lon="2.01847">
        <ele>11</ele>
        <time>2013-08-25T07:53:03Z</time>
      </trkpt>
      <trkpt lat="50.02197" lon="2.01866">
        <ele>10.1</ele>
        <time>2013-08-25T07:53:15Z</time>
      </trkpt>
      <trkpt lat="50.02188" lon="2.01885">
        <ele>9.4</ele>
        <time>2013-08-25T07:53:26Z</time>
      </trkpt>
      <trkpt lat="50.02179" lon="2.01903">
        <ele>9.5</ele>
        <time>2013-08-25T07:53:37Z</time>
      </trkpt>
      <trkpt lat="50.02177" lon="2.01913">
        <ele>10.3</ele>
        <time>2013-08-25T07:53:47Z</time>
      </trkpt>
      <trkpt lat="50.02167" lon="2.0193">
        <ele>12.1</ele>
        <time>2013-08-25T07:54:08Z</time>
      </trkpt>
      <trkpt lat="50.0216" lon="2.01949">
        <ele>12.8</ele>
        <time>2013-08-25T07:54:16Z</time>
      </trkpt>
      <trkpt lat="50.02155" lon="2.01968">
        <ele>13.6</ele>
        <time>2013-08-25T07:54:26Z</time>
      </trkpt>
      <trkpt lat="50.02147" lon="2.01988">
        <ele>13.1</ele>
        <time>2013-08-25T07:54:36Z</time>
      </trkpt>
      <trkpt lat="50.02141" lon="2.02009">
        <ele>11.2</ele>
        <time>2013-08-25T07:54:46Z</time>
      </trkpt>
      <trkpt lat="50.02134" lon="2.02029">
        <ele>9.3</ele>
        <time>2013-08-25T07:54:56Z</time>
      </trkpt>
      <trkpt lat="50.02127" lon="2.02049">
        <ele>7.2</ele>
        <time>2013-08-25T07:55:07Z</time>
      </trkpt>
      <trkpt lat="50.0212" lon="2.02069">
        <ele>5.4</ele>
        <time>2013-08-25T07:55:17Z</time>
      </trkpt>
      <trkpt lat="50.02114" lon="2.02088">
        <ele>3.5</ele>
        <time>2013-08-25T07:55:28Z</time>
      </trkpt>
      <trkpt lat="50.02109" lon="2.02108">
        <ele>3.2</ele>
        <time>2013-08-25T07:55:39Z</time>
      </trkpt>
      <trkpt lat="50.021" lon="2.02124">
        <ele>3.5</ele>
        <time>2013-08-25T07:55:47Z</time>
      </trkpt>
      <trkpt lat="50.02093" lon="2.02144">
        <ele>3.8</ele>
        <time>2013-08-25T07:55:57Z</time>
      </trkpt>
      <trkpt lat="50.02088" lon="2.02164">
        <ele>5.2</ele>
        <time>2013-08-25T07:56:06Z</time>
      </trkpt>
      <trkpt lat="50.02079" lon="2.02181">
        <ele>5.1</ele>
        <time>2013-08-25T07:56:16Z</time>
      </trkpt>
      <trkpt lat="50.02072" lon="2.022">
        <ele>4.5</ele>
        <time>2013-08-25T07:56:28Z</time>
      </trkpt>
      <trkpt lat="50.02065" lon="2.02219">
        <ele>5</ele>
        <time>2013-08-25T07:56:36Z</time>
      </trkpt>
      <trkpt lat="50.02057" lon="2.02239">
        <ele>5.6</ele>
        <time>2013-08-25T07:56:46Z</time>
      </trkpt>
      <trkpt lat="50.02048" lon="2.02256">
        <ele>6.1</ele>
        <time>2013-08-25T07:56:55Z</time>
      </trkpt>
      <trkpt lat="50.02046" lon="2.02277">
        <ele>6.6</ele>
        <time>2013-08-25T07:57:04Z</time>
      </trkpt>
      <trkpt lat="50.02043" lon="2.02299">
        <ele>7.2</ele>
        <time>2013-08-25T07:57:15Z</time>
      </trkpt>
      <trkpt lat="50.02038" lon="2.0232">
        <ele>7.8</ele>
        <time>2013-08-25T07:57:23Z</time>
      </trkpt>
      <trkpt lat="50.0203" lon="2.02337">
        <ele>9.4</ele>
        <time>2013-08-25T07:57:32Z</time>
      </trkpt>
      <trkpt lat="50.02024" lon="2.02358">
        <ele>10.7</ele>
        <time>2013-08-25T07:57:44Z</time>
      </trkpt>
      <trkpt lat="50.01998" lon="2.02376">
        <ele>9.2</ele>
        <time>2013-08-25T07:57:58Z</time>
      </trkpt>
      <trkpt lat="50.01998" lon="2.02376">
        <ele>9.2</ele>
        <time>2013-08-25T08:04:19Z</time>
      </trkpt>
      <trkpt lat="50.01983" lon="2.0238">
        <ele>8.3</ele>
        <time>2013-08-25T08:04:20Z</time>
      </trkpt>
      <trkpt lat="50.01972" lon="2.02369">
        <ele>6</ele>
        <time>2013-08-25T08:04:27Z</time>
      </trkpt>
      <trkpt lat="50.01961" lon="2.02357">
        <ele>8.7</ele>
        <time>2013-08-25T08:04:37Z</time>
      </trkpt>
      <trkpt lat="50.01949" lon="2.02345">
        <ele>6.8</ele>
        <time>2013-08-25T08:04:47Z</time>
      </trkpt>
      <trkpt lat="50.01938" lon="2.02331">
        <ele>5.5</ele>
        <time>2013-08-25T08:05:01Z</time>
      </trkpt>
      <trkpt lat="50.01926" lon="2.0232">
        <ele>10.5</ele>
        <time>2013-08-25T08:05:10Z</time>
      </trkpt>
      <trkpt lat="50.01915" lon="2.02309">
        <ele>10.6</ele>
        <time>2013-08-25T08:05:20Z</time>
      </trkpt>
      <trkpt lat="50.01904" lon="2.02294">
        <ele>10.2</ele>
        <time>2013-08-25T08:05:28Z</time>
      </trkpt>
      <trkpt lat="50.01893" lon="2.0228">
        <ele>9.7</ele>
        <time>2013-08-25T08:05:37Z</time>
      </trkpt>
      <trkpt lat="50.01881" lon="2.02269">
        <ele>9.2</ele>
        <time>2013-08-25T08:05:47Z</time>
      </trkpt>
      <trkpt lat="50.01869" lon="2.02255">
        <ele>8.7</ele>
        <time>2013-08-25T08:05:56Z</time>
      </trkpt>
      <trkpt lat="50.01858" lon="2.02239">
        <ele>8.3</ele>
        <time>2013-08-25T08:06:05Z</time>
      </trkpt>
      <trkpt lat="50.01847" lon="2.02225">
        <ele>8.9</ele>
        <time>2013-08-25T08:06:15Z</time>
      </trkpt>
      <trkpt lat="50.01835" lon="2.02212">
        <ele>10.9</ele>
        <time>2013-08-25T08:06:27Z</time>
      </trkpt>
      <trkpt lat="50.01822" lon="2.02201">
        <ele>10.5</ele>
        <time>2013-08-25T08:06:35Z</time>
      </trkpt>
      <trkpt lat="50.01811" lon="2.02188">
        <ele>9.6</ele>
        <time>2013-08-25T08:06:44Z</time>
      </trkpt>
      <trkpt lat="50.01799" lon="2.02176">
        <ele>10.6</ele>
        <time>2013-08-25T08:06:55Z</time>
      </trkpt>
      <trkpt lat="50.01789" lon="2.0216">
        <ele>11.5</ele>
        <time>2013-08-25T08:07:06Z</time>
      </trkpt>
      <trkpt lat="50.0178" lon="2.02144">
        <ele>11.1</ele>
        <time>2013-08-25T08:07:13Z</time>
      </trkpt>
      <trkpt lat="50.0177" lon="2.0213">
        <ele>8.7</ele>
        <time>2013-08-25T08:07:22Z</time>
      </trkpt>
      <trkpt lat="50.0176" lon="2.02116">
        <ele>7.2</ele>
        <time>2013-08-25T08:07:32Z</time>
      </trkpt>
      <trkpt lat="50.01748" lon="2.02104">
        <ele>5.6</ele>
        <time>2013-08-25T08:07:43Z</time>
      </trkpt>
      <trkpt lat="50.01736" lon="2.02094">
        <ele>6.2</ele>
        <time>2013-08-25T08:07:52Z</time>
      </trkpt>
      <trkpt lat="50.01724" lon="2.02083">
        <ele>8.5</ele>
        <time>2013-08-25T08:08:03Z</time>
      </trkpt>
      <trkpt lat="50.01714" lon="2.02069">
        <ele>9.8</ele>
        <time>2013-08-25T08:08:11Z</time>
      </trkpt>
      <trkpt lat="50.01705" lon="2.02051">
        <ele>10.8</ele>
        <time>2013-08-25T08:08:20Z</time>
      </trkpt>
      <trkpt lat="50.01695" lon="2.02035">
        <ele>11.9</ele>
        <time>2013-08-25T08:08:31Z</time>
      </trkpt>
      <trkpt lat="50.01684" lon="2.02022">
        <ele>11</ele>
        <time>2013-08-25T08:08:42Z</time>
      </trkpt>
      <trkpt lat="50.01673" lon="2.02006">
        <ele>10.1</ele>
        <time>2013-08-25T08:08:52Z</time>
      </trkpt>
      <trkpt lat="50.01683" lon="2.0199">
        <ele>9.1</ele>
        <time>2013-08-25T08:09:03Z</time>
      </trkpt>
      <trkpt lat="50.01696" lon="2.01993">
        <ele>7.1</ele>
        <time>2013-08-25T08:09:12Z</time>
      </trkpt>
      <trkpt lat="50.0171" lon="2.01993">
        <ele>5</ele>
        <time>2013-08-25T08:09:21Z</time>
      </trkpt>
      <trkpt lat="50.01723" lon="2.01996">
        <ele>5.9</ele>
        <time>2013-08-25T08:09:31Z</time>
      </trkpt>
      <trkpt lat="50.01737" lon="2.01996">
        <ele>7</ele>
        <time>2013-08-25T08:09:44Z</time>
      </trkpt>
      <trkpt lat="50.01752" lon="2.01995">
        <ele>7.9</ele>
        <time>2013-08-25T08:09:56Z</time>
      </trkpt>
      <trkpt lat="50.01765" lon="2.01994">
        <ele>6.8</ele>
        <time>2013-08-25T08:10:03Z</time>
      </trkpt>
      <trkpt lat="50.0178" lon="2.02">
        <ele>5.5</ele>
        <time>2013-08-25T08:10:12Z</time>
      </trkpt>
      <trkpt lat="50.01794" lon="2.02">
        <ele>6.3</ele>
        <time>2013-08-25T08:10:20Z</time>
      </trkpt>
      <trkpt lat="50.01807" lon="2.01995">
        <ele>10</ele>
        <time>2013-08-25T08:10:30Z</time>
      </trkpt>
      <trkpt lat="50.01821" lon="2.01988">
        <ele>13.8</ele>
        <time>2013-08-25T08:10:39Z</time>
      </trkpt>
      <trkpt lat="50.01835" lon="2.01987">
        <ele>16.2</ele>
        <time>2013-08-25T08:10:46Z</time>
      </trkpt>
      <trkpt lat="50.01849" lon="2.0198">
        <ele>17.1</ele>
        <time>2013-08-25T08:10:55Z</time>
      </trkpt>
      <trkpt lat="50.0186" lon="2.01967">
        <ele>14.2</ele>
        <time>2013-08-25T08:11:07Z</time>
      </trkpt>
      <trkpt lat="50.01871" lon="2.01953">
        <ele>11.9</ele>
        <time>2013-08-25T08:11:19Z</time>
      </trkpt>
      <trkpt lat="50.01886" lon="2.01954">
        <ele>12.1</ele>
        <time>2013-08-25T08:11:28Z</time>
      </trkpt>
      <trkpt lat="50.01899" lon="2.01952">
        <ele>12.7</ele>
        <time>2013-08-25T08:11:39Z</time>
      </trkpt>
      <trkpt lat="50.01912" lon="2.01945">
        <ele>9.9</ele>
        <time>2013-08-25T08:11:49Z</time>
      </trkpt>
      <trkpt lat="50.01926" lon="2.01941">
        <ele>9.5</ele>
        <time>2013-08-25T08:11:59Z</time>
      </trkpt>
      <trkpt lat="50.0194" lon="2.01936">
        <ele>9</ele>
        <time>2013-08-25T08:12:10Z</time>
      </trkpt>
      <trkpt lat="50.01954" lon="2.0193">
        <ele>8.2</ele>
        <time>2013-08-25T08:12:20Z</time>
      </trkpt>
      <trkpt lat="50.01967" lon="2.01921">
        <ele>7.5</ele>
        <time>2013-08-25T08:12:29Z</time>
      </trkpt>
      <trkpt lat="50.01982" lon="2.01924">
        <ele>6.5</ele>
        <time>2013-08-25T08:12:42Z</time>
      </trkpt>
      <trkpt lat="50.01996" lon="2.01929">
        <ele>5.8</ele>
        <time>2013-08-25T08:12:52Z</time>
      </trkpt>
      <trkpt lat="50.02009" lon="2.01916">
        <ele>5.1</ele>
        <time>2013-08-25T08:13:03Z</time>
      </trkpt>
      <trkpt lat="50.02015" lon="2.01897">
        <ele>5.7</ele>
        <time>2013-08-25T08:13:15Z</time>
      </trkpt>
      <trkpt lat="50.02027" lon="2.01884">
        <ele>6.4</ele>
        <time>2013-08-25T08:13:27Z</time>
      </trkpt>
      <trkpt lat="50.02041" lon="2.01877">
        <ele>6.8</ele>
        <time>2013-08-25T08:13:36Z</time>
      </trkpt>
      <trkpt lat="50.0205" lon="2.0186">
        <ele>7.4</ele>
        <time>2013-08-25T08:13:47Z</time>
      </trkpt>
      <trkpt lat="50.02069" lon="2.01815">
        <ele>5</ele>
        <time>2013-08-25T08:14:05Z</time>
      </trkpt>
      <trkpt lat="50.02069" lon="2.01815">
        <ele>5</ele>
        <time>2013-08-25T08:15:27Z</time>
      </trkpt>
      <trkpt lat="50.02091" lon="2.01765">
        <ele>5.8</ele>
        <time>2013-08-25T08:15:42Z</time>
      </trkpt>
      <trkpt lat="50.02091" lon="2.01765">
        <ele>5.8</ele>
        <time>2013-08-25T08:16:35Z</time>
      </trkpt>
      <trkpt lat="50.02103" lon="2.01745">
        <ele>9.6</ele>
        <time>2013-08-25T08:16:40Z</time>
      </trkpt>
      <trkpt lat="50.02106" lon="2.01724">
        <ele>9.2</ele>
        <time>2013-08-25T08:16:52Z</time>
      </trkpt>
      <trkpt lat="50.02114" lon="2.01705">
        <ele>10.1</ele>
        <time>2013-08-25T08:17:02Z</time>
      </trkpt>
      <trkpt lat="50.02123" lon="2.01688">
        <ele>11.1</ele>
        <time>2013-08-25T08:17:13Z</time>
      </trkpt>
      <trkpt lat="50.0213" lon="2.0167">
        <ele>11.9</ele>
        <time>2013-08-25T08:17:22Z</time>
      </trkpt>
      <trkpt lat="50.02118" lon="2.01657">
        <ele>9.7</ele>
        <time>2013-08-25T08:17:36Z</time>
      </trkpt>
      <trkpt lat="50.0211" lon="2.01638">
        <ele>13</ele>
        <time>2013-08-25T08:17:45Z</time>
      </trkpt>
      <trkpt lat="50.02102" lon="2.01619">
        <ele>10.4</ele>
        <time>2013-08-25T08:17:58Z</time>
      </trkpt>
      <trkpt lat="50.02093" lon="2.01603">
        <ele>12.6</ele>
        <time>2013-08-25T08:18:09Z</time>
      </trkpt>
      <trkpt lat="50.02084" lon="2.01585">
        <ele>11.1</ele>
        <time>2013-08-25T08:18:17Z</time>
      </trkpt>
      <trkpt lat="50.02075" lon="2.01566">
        <ele>8.7</ele>
        <time>2013-08-25T08:18:30Z</time>
      </trkpt>
      <trkpt lat="50.02063" lon="2.01554">
        <ele>7.1</ele>
        <time>2013-08-25T08:18:40Z</time>
      </trkpt>
      <trkpt lat="50.02051" lon="2.01542">
        <ele>8.5</ele>
        <time>2013-08-25T08:18:53Z</time>
      </trkpt>
      <trkpt lat="50.0204" lon="2.01529">
        <ele>9.4</ele>
        <time>2013-08-25T08:19:02Z</time>
      </trkpt>
      <trkpt lat="50.02028" lon="2.01516">
        <ele>10.2</ele>
        <time>2013-08-25T08:19:10Z</time>
      </trkpt>
      <trkpt lat="50.02024" lon="2.01507">
        <ele>10.9</ele>
        <time>2013-08-25T08:19:19Z</time>
      </trkpt>
      <trkpt lat="50.02027" lon="2.01504">
        <ele>10.4</ele>
        <time>2013-08-25T08:19:23Z</time>
      </trkpt>
      <trkpt lat="50.02015" lon="2.01492">
        <ele>9.3</ele>
        <time>2013-08-25T08:19:33Z</time>
      </trkpt>
      <trkpt lat="50.02002" lon="2.01482">
        <ele>8.4</ele>
        <time>2013-08-25T08:19:41Z</time>
      </trkpt>
      <trkpt lat="50.0199" lon="2.01472">
        <ele>7.3</ele>
        <time>2013-08-25T08:19:48Z</time>
      </trkpt>
      <trkpt lat="50.01979" lon="2.01457">
        <ele>5.7</ele>
        <time>2013-08-25T08:19:57Z</time>
      </trkpt>
      <trkpt lat="50.01967" lon="2.01445">
        <ele>5</ele>
        <time>2013-08-25T08:20:10Z</time>
      </trkpt>
      <trkpt lat="50.01958" lon="2.01428">
        <ele>5</ele>
        <time>2013-08-25T08:20:20Z</time>
      </trkpt>
      <trkpt lat="50.01947" lon="2.01411">
        <ele>4.3</ele>
        <time>2013-08-25T08:20:32Z</time>
      </trkpt>
      <trkpt lat="50.01933" lon="2.01404">
        <ele>1.1</ele>
        <time>2013-08-25T08:20:43Z</time>
      </trkpt>
      <trkpt lat="50.01922" lon="2.01391">
        <ele>2.3</ele>
        <time>2013-08-25T08:20:56Z</time>
      </trkpt>
      <trkpt lat="50.01911" lon="2.01374">
        <ele>3.3</ele>
        <time>2013-08-25T08:21:06Z</time>
      </trkpt>
      <trkpt lat="50.01902" lon="2.01358">
        <ele>4.4</ele>
        <time>2013-08-25T08:21:19Z</time>
      </trkpt>
      <trkpt lat="50.01892" lon="2.0134">
        <ele>5.5</ele>
        <time>2013-08-25T08:21:30Z</time>
      </trkpt>
      <trkpt lat="50.01882" lon="2.01325">
        <ele>5.7</ele>
        <time>2013-08-25T08:21:40Z</time>
      </trkpt>
      <trkpt lat="50.01875" lon="2.01306">
        <ele>4.8</ele>
        <time>2013-08-25T08:21:47Z</time>
      </trkpt>
      <trkpt lat="50.01867" lon="2.01288">
        <ele>3.9</ele>
        <time>2013-08-25T08:21:56Z</time>
      </trkpt>
      <trkpt lat="50.01855" lon="2.01274">
        <ele>3</ele>
        <time>2013-08-25T08:22:05Z</time>
      </trkpt>
      <trkpt lat="50.01846" lon="2.01258">
        <ele>5.8</ele>
        <time>2013-08-25T08:22:14Z</time>
      </trkpt>
      <trkpt lat="50.01835" lon="2.01243">
        <ele>4.7</ele>
        <time>2013-08-25T08:22:31Z</time>
      </trkpt>
      <trkpt lat="50.01823" lon="2.01232">
        <ele>4.1</ele>
        <time>2013-08-25T08:22:40Z</time>
      </trkpt>
      <trkpt lat="50.01812" lon="2.01217">
        <ele>3.5</ele>
        <time>2013-08-25T08:22:50Z</time>
      </trkpt>
      <trkpt lat="50.01801" lon="2.01201">
        <ele>2.5</ele>
        <time>2013-08-25T08:23:01Z</time>
      </trkpt>
      <trkpt lat="50.01791" lon="2.01186">
        <ele>-0.8</ele>
        <time>2013-08-25T08:23:14Z</time>
      </trkpt>
      <trkpt lat="50.01779" lon="2.01173">
        <ele>4</ele>
        <time>2013-08-25T08:23:21Z</time>
      </trkpt>
      <trkpt lat="50.01771" lon="2.01156">
        <ele>6.7</ele>
        <time>2013-08-25T08:23:32Z</time>
      </trkpt>
      <trkpt lat="50.01761" lon="2.01142">
        <ele>10.3</ele>
        <time>2013-08-25T08:23:41Z</time>
      </trkpt>
      <trkpt lat="50.01747" lon="2.01132">
        <ele>11.2</ele>
        <time>2013-08-25T08:23:49Z</time>
      </trkpt>
      <trkpt lat="50.01733" lon="2.0113">
        <ele>10</ele>
        <time>2013-08-25T08:23:59Z</time>
      </trkpt>
      <trkpt lat="50.01722" lon="2.01118">
        <ele>10</ele>
        <time>2013-08-25T08:24:13Z</time>
      </trkpt>
      <trkpt lat="50.01712" lon="2.01102">
        <ele>8.4</ele>
        <time>2013-08-25T08:24:24Z</time>
      </trkpt>
      <trkpt lat="50.01703" lon="2.01085">
        <ele>3</ele>
        <time>2013-08-25T08:24:39Z</time>
      </trkpt>
      <trkpt lat="50.01691" lon="2.01073">
        <ele>1</ele>
        <time>2013-08-25T08:24:49Z</time>
      </trkpt>
      <trkpt lat="50.01684" lon="2.01054">
        <ele>0.7</ele>
        <time>2013-08-25T08:24:58Z</time>
      </trkpt>
      <trkpt lat="50.01683" lon="2.01032">
        <ele>0.5</ele>
        <time>2013-08-25T08:25:08Z</time>
      </trkpt>
      <trkpt lat="50.01678" lon="2.01012">
        <ele>0.3</ele>
        <time>2013-08-25T08:25:18Z</time>
      </trkpt>
      <trkpt lat="50.0167" lon="2.00994">
        <ele>9.9</ele>
        <time>2013-08-25T08:25:30Z</time>
      </trkpt>
      <trkpt lat="50.01665" lon="2.00973">
        <ele>1.7</ele>
        <time>2013-08-25T08:25:38Z</time>
      </trkpt>
      <trkpt lat="50.01664" lon="2.00953">
        <ele>3.2</ele>
        <time>2013-08-25T08:25:49Z</time>
      </trkpt>
      <trkpt lat="50.0166" lon="2.00932">
        <ele>3.7</ele>
        <time>2013-08-25T08:25:59Z</time>
      </trkpt>
      <trkpt lat="50.01655" lon="2.00911">
        <ele>4.3</ele>
        <time>2013-08-25T08:26:12Z</time>
      </trkpt>
      <trkpt lat="50.01648" lon="2.00892">
        <ele>4.8</ele>
        <time>2013-08-25T08:26:21Z</time>
      </trkpt>
      <trkpt lat="50.01649" lon="2.00869">
        <ele>5.3</ele>
        <time>2013-08-25T08:26:30Z</time>
      </trkpt>
      <trkpt lat="50.01645" lon="2.00848">
        <ele>5.7</ele>
        <time>2013-08-25T08:26:38Z</time>
      </trkpt>
      <trkpt lat="50.01636" lon="2.0083">
        <ele>5.1</ele>
        <time>2013-08-25T08:26:49Z</time>
      </trkpt>
      <trkpt lat="50.01633" lon="2.00808">
        <ele>3.6</ele>
        <time>2013-08-25T08:26:58Z</time>
      </trkpt>
      <trkpt lat="50.01625" lon="2.00791">
        <ele>2.4</ele>
        <time>2013-08-25T08:27:11Z</time>
      </trkpt>
      <trkpt lat="50.01617" lon="2.00771">
        <ele>3.5</ele>
        <time>2013-08-25T08:27:24Z</time>
      </trkpt>
      <trkpt lat="50.01608" lon="2.00755">
        <ele>4.3</ele>
        <time>2013-08-25T08:27:33Z</time>
      </trkpt>
      <trkpt lat="50.01599" lon="2.00737">
        <ele>4.9</ele>
        <time>2013-08-25T08:27:42Z</time>
      </trkpt>
      <trkpt lat="50.016" lon="2.00714">
        <ele>4.4</ele>
        <time>2013-08-25T08:27:54Z</time>
      </trkpt>
      <trkpt lat="50.01595" lon="2.00693">
        <ele>4</ele>
        <time>2013-08-25T08:28:05Z</time>
      </trkpt>
      <trkpt lat="50.01588" lon="2.00674">
        <ele>3.6</ele>
        <time>2013-08-25T08:28:14Z</time>
      </trkpt>
      <trkpt lat="50.01578" lon="2.00657">
        <ele>3.3</ele>
        <time>2013-08-25T08:28:22Z</time>
      </trkpt>
      <trkpt lat="50.01567" lon="2.00642">
        <ele>2.8</ele>
        <time>2013-08-25T08:28:35Z</time>
      </trkpt>
      <trkpt lat="50.01553" lon="2.00643">
        <ele>2.3</ele>
        <time>2013-08-25T08:28:45Z</time>
      </trkpt>
      <trkpt lat="50.01539" lon="2.00642">
        <ele>1.5</ele>
        <time>2013-08-25T08:28:55Z</time>
      </trkpt>
      <trkpt lat="50.01526" lon="2.00638">
        <ele>-0.6</ele>
        <time>2013-08-25T08:29:04Z</time>
      </trkpt>
      <trkpt lat="50.01513" lon="2.0063">
        <ele>0.5</ele>
        <time>2013-08-25T08:29:14Z</time>
      </trkpt>
      <trkpt lat="50.015" lon="2.00623">
        <ele>1.7</ele>
        <time>2013-08-25T08:29:24Z</time>
      </trkpt>
      <trkpt lat="50.01486" lon="2.00615">
        <ele>3</ele>
        <time>2013-08-25T08:29:32Z</time>
      </trkpt>
      <trkpt lat="50.01473" lon="2.00603">
        <ele>4.6</ele>
        <time>2013-08-25T08:29:41Z</time>
      </trkpt>
      <trkpt lat="50.0146" lon="2.00597">
        <ele>2.8</ele>
        <time>2013-08-25T08:29:51Z</time>
      </trkpt>
      <trkpt lat="50.01446" lon="2.00591">
        <ele>0.7</ele>
        <time>2013-08-25T08:30:01Z</time>
      </trkpt>
      <trkpt lat="50.01433" lon="2.00587">
        <ele>-1.8</ele>
        <time>2013-08-25T08:30:11Z</time>
      </trkpt>
      <trkpt lat="50.01419" lon="2.00583">
        <ele>-1.1</ele>
        <time>2013-08-25T08:30:25Z</time>
      </trkpt>
      <trkpt lat="50.01408" lon="2.00567">
        <ele>-0.4</ele>
        <time>2013-08-25T08:30:32Z</time>
      </trkpt>
      <trkpt lat="50.01395" lon="2.00563">
        <ele>0.3</ele>
        <time>2013-08-25T08:30:41Z</time>
      </trkpt>
      <trkpt lat="50.0138" lon="2.00564">
        <ele>1.5</ele>
        <time>2013-08-25T08:30:56Z</time>
      </trkpt>
      <trkpt lat="50.01365" lon="2.00558">
        <ele>2.2</ele>
        <time>2013-08-25T08:31:06Z</time>
      </trkpt>
      <trkpt lat="50.01352" lon="2.00551">
        <ele>2.9</ele>
        <time>2013-08-25T08:31:14Z</time>
      </trkpt>
      <trkpt lat="50.0134" lon="2.00541">
        <ele>3.7</ele>
        <time>2013-08-25T08:31:24Z</time>
      </trkpt>
      <trkpt lat="50.01326" lon="2.00535">
        <ele>4.4</ele>
        <time>2013-08-25T08:31:33Z</time>
      </trkpt>
      <trkpt lat="50.01313" lon="2.00529">
        <ele>5.1</ele>
        <time>2013-08-25T08:31:40Z</time>
      </trkpt>
      <trkpt lat="50.01302" lon="2.00516">
        <ele>6</ele>
        <time>2013-08-25T08:31:52Z</time>
      </trkpt>
      <trkpt lat="50.01296" lon="2.0051">
        <ele>6.5</ele>
        <time>2013-08-25T08:31:58Z</time>
      </trkpt>
      <trkpt lat="50.01282" lon="2.00503">
        <ele>7.2</ele>
        <time>2013-08-25T08:32:07Z</time>
      </trkpt>
      <trkpt lat="50.0127" lon="2.0049">
        <ele>8.2</ele>
        <time>2013-08-25T08:32:17Z</time>
      </trkpt>
      <trkpt lat="50.01258" lon="2.00477">
        <ele>7</ele>
        <time>2013-08-25T08:32:30Z</time>
      </trkpt>
      <trkpt lat="50.01246" lon="2.00467">
        <ele>-2</ele>
        <time>2013-08-25T08:32:41Z</time>
      </trkpt>
      <trkpt lat="50.01234" lon="2.00458">
        <ele>-1.5</ele>
        <time>2013-08-25T08:32:52Z</time>
      </trkpt>
      <trkpt lat="50.01221" lon="2.00448">
        <ele>-1.1</ele>
        <time>2013-08-25T08:33:01Z</time>
      </trkpt>
      <trkpt lat="50.01212" lon="2.00434">
        <ele>-0.5</ele>
        <time>2013-08-25T08:33:08Z</time>
      </trkpt>
      <trkpt lat="50.01198" lon="2.00432">
        <ele>0.6</ele>
        <time>2013-08-25T08:33:13Z</time>
      </trkpt>
      <trkpt lat="50.01184" lon="2.00429">
        <ele>6.8</ele>
        <time>2013-08-25T08:33:28Z</time>
      </trkpt>
      <trkpt lat="50.01174" lon="2.00444">
        <ele>10.1</ele>
        <time>2013-08-25T08:33:35Z</time>
      </trkpt>
      <trkpt lat="50.01167" lon="2.00465">
        <ele>12.9</ele>
        <time>2013-08-25T08:33:43Z</time>
      </trkpt>
      <trkpt lat="50.01163" lon="2.00485">
        <ele>14.7</ele>
        <time>2013-08-25T08:33:49Z</time>
      </trkpt>
      <trkpt lat="50.01154" lon="2.00502">
        <ele>12.7</ele>
        <time>2013-08-25T08:34:04Z</time>
      </trkpt>
      <trkpt lat="50.01145" lon="2.0052">
        <ele>10.8</ele>
        <time>2013-08-25T08:34:18Z</time>
      </trkpt>
      <trkpt lat="50.01134" lon="2.00533">
        <ele>9.2</ele>
        <time>2013-08-25T08:34:26Z</time>
      </trkpt>
      <trkpt lat="50.01137" lon="2.00554">
        <ele>7</ele>
        <time>2013-08-25T08:34:33Z</time>
      </trkpt>
      <trkpt lat="50.01138" lon="2.00564">
        <ele>7</ele>
        <time>2013-08-25T08:34:41Z</time>
      </trkpt>
      <trkpt lat="50.01154" lon="2.00552">
        <ele>7.6</ele>
        <time>2013-08-25T08:34:54Z</time>
      </trkpt>
      <trkpt lat="50.01154" lon="2.00552">
        <ele>7.6</ele>
        <time>2013-08-25T08:51:42Z</time>
      </trkpt>
      <trkpt lat="50.01158" lon="2.00535">
        <ele>8.1</ele>
        <time>2013-08-25T08:51:45Z</time>
      </trkpt>
      <trkpt lat="50.01158" lon="2.00514">
        <ele>5.7</ele>
        <time>2013-08-25T08:51:53Z</time>
      </trkpt>
      <trkpt lat="50.01158" lon="2.00499">
        <ele>2.6</ele>
        <time>2013-08-25T08:52:03Z</time>
      </trkpt>
      <trkpt lat="50.01153" lon="2.00478">
        <ele>3.6</ele>
        <time>2013-08-25T08:52:16Z</time>
      </trkpt>
      <trkpt lat="50.01164" lon="2.00464">
        <ele>4.9</ele>
        <time>2013-08-25T08:52:25Z</time>
      </trkpt>
      <trkpt lat="50.01174" lon="2.00447">
        <ele>5</ele>
        <time>2013-08-25T08:52:34Z</time>
      </trkpt>
      <trkpt lat="50.01182" lon="2.0043">
        <ele>5.9</ele>
        <time>2013-08-25T08:52:44Z</time>
      </trkpt>
      <trkpt lat="50.01191" lon="2.00413">
        <ele>7.3</ele>
        <time>2013-08-25T08:52:51Z</time>
      </trkpt>
      <trkpt lat="50.01193" lon="2.00392">
        <ele>8.8</ele>
        <time>2013-08-25T08:53:00Z</time>
      </trkpt>
      <trkpt lat="50.01198" lon="2.00371">
        <ele>9.4</ele>
        <time>2013-08-25T08:53:10Z</time>
      </trkpt>
      <trkpt lat="50.01207" lon="2.00355">
        <ele>6.2</ele>
        <time>2013-08-25T08:53:21Z</time>
      </trkpt>
      <trkpt lat="50.01216" lon="2.00336">
        <ele>1.2</ele>
        <time>2013-08-25T08:53:31Z</time>
      </trkpt>
      <trkpt lat="50.01218" lon="2.00313">
        <ele>-1.4</ele>
        <time>2013-08-25T08:53:41Z</time>
      </trkpt>
      <trkpt lat="50.01221" lon="2.00292">
        <ele>-2.8</ele>
        <time>2013-08-25T08:53:49Z</time>
      </trkpt>
      <trkpt lat="50.01223" lon="2.0027">
        <ele>-1.6</ele>
        <time>2013-08-25T08:53:58Z</time>
      </trkpt>
      <trkpt lat="50.01234" lon="2.00255">
        <ele>0.7</ele>
        <time>2013-08-25T08:54:09Z</time>
      </trkpt>
      <trkpt lat="50.01241" lon="2.00235">
        <ele>2.6</ele>
        <time>2013-08-25T08:54:17Z</time>
      </trkpt>
      <trkpt lat="50.01248" lon="2.00218">
        <ele>3.9</ele>
        <time>2013-08-25T08:54:27Z</time>
      </trkpt>
      <trkpt lat="50.01251" lon="2.00196">
        <ele>4.7</ele>
        <time>2013-08-25T08:54:36Z</time>
      </trkpt>
      <trkpt lat="50.01259" lon="2.00177">
        <ele>2.6</ele>
        <time>2013-08-25T08:54:48Z</time>
      </trkpt>
      <trkpt lat="50.01268" lon="2.00161">
        <ele>0.9</ele>
        <time>2013-08-25T08:54:59Z</time>
      </trkpt>
      <trkpt lat="50.0128" lon="2.00147">
        <ele>-0.5</ele>
        <time>2013-08-25T08:55:09Z</time>
      </trkpt>
      <trkpt lat="50.01289" lon="2.0013">
        <ele>-1.7</ele>
        <time>2013-08-25T08:55:18Z</time>
      </trkpt>
      <trkpt lat="50.013" lon="2.00115">
        <ele>-2.5</ele>
        <time>2013-08-25T08:55:31Z</time>
      </trkpt>
      <trkpt lat="50.01308" lon="2.00096">
        <ele>-3</ele>
        <time>2013-08-25T08:55:41Z</time>
      </trkpt>
      <trkpt lat="50.01316" lon="2.00079">
        <ele>-3</ele>
        <time>2013-08-25T08:55:51Z</time>
      </trkpt>
      <trkpt lat="50.01324" lon="2.0006">
        <ele>-1.8</ele>
        <time>2013-08-25T08:56:02Z</time>
      </trkpt>
      <trkpt lat="50.01333" lon="2.00041">
        <ele>0.3</ele>
        <time>2013-08-25T08:56:12Z</time>
      </trkpt>
      <trkpt lat="50.01341" lon="2.00024">
        <ele>1.2</ele>
        <time>2013-08-25T08:56:22Z</time>
      </trkpt>
      <trkpt lat="50.01347" lon="2.00005">
        <ele>2</ele>
        <time>2013-08-25T08:56:31Z</time>
      </trkpt>
      <trkpt lat="50.01349" lon="1.99983">
        <ele>2.9</ele>
        <time>2013-08-25T08:56:41Z</time>
      </trkpt>
      <trkpt lat="50.01344" lon="1.99963">
        <ele>1.3</ele>
        <time>2013-08-25T08:56:49Z</time>
      </trkpt>
      <trkpt lat="50.01335" lon="1.99947">
        <ele>-0.7</ele>
        <time>2013-08-25T08:56:57Z</time>
      </trkpt>
      <trkpt lat="50.01327" lon="1.99928">
        <ele>0.6</ele>
        <time>2013-08-25T08:57:07Z</time>
      </trkpt>
      <trkpt lat="50.01326" lon="1.99906">
        <ele>1.9</ele>
        <time>2013-08-25T08:57:16Z</time>
      </trkpt>
      <trkpt lat="50.01333" lon="1.99887">
        <ele>0.5</ele>
        <time>2013-08-25T08:57:26Z</time>
      </trkpt>
      <trkpt lat="50.01337" lon="1.99866">
        <ele>-0.7</ele>
        <time>2013-08-25T08:57:35Z</time>
      </trkpt>
      <trkpt lat="50.01345" lon="1.99849">
        <ele>-0.7</ele>
        <time>2013-08-25T08:57:44Z</time>
      </trkpt>
      <trkpt lat="50.01351" lon="1.99829">
        <ele>-0.2</ele>
        <time>2013-08-25T08:57:58Z</time>
      </trkpt>
      <trkpt lat="50.01349" lon="1.99808">
        <ele>0.1</ele>
        <time>2013-08-25T08:58:06Z</time>
      </trkpt>
      <trkpt lat="50.01358" lon="1.99791">
        <ele>0.4</ele>
        <time>2013-08-25T08:58:16Z</time>
      </trkpt>
      <trkpt lat="50.01367" lon="1.99773">
        <ele>0.8</ele>
        <time>2013-08-25T08:58:26Z</time>
      </trkpt>
      <trkpt lat="50.01373" lon="1.99752">
        <ele>1.2</ele>
        <time>2013-08-25T08:58:36Z</time>
      </trkpt>
      <trkpt lat="50.0138" lon="1.99734">
        <ele>1.5</ele>
        <time>2013-08-25T08:58:46Z</time>
      </trkpt>
      <trkpt lat="50.01384" lon="1.99712">
        <ele>1.9</ele>
        <time>2013-08-25T08:58:57Z</time>
      </trkpt>
      <trkpt lat="50.01387" lon="1.99691">
        <ele>0.8</ele>
        <time>2013-08-25T08:59:05Z</time>
      </trkpt>
      <trkpt lat="50.01391" lon="1.9967">
        <ele>-1</ele>
        <time>2013-08-25T08:59:16Z</time>
      </trkpt>
      <trkpt lat="50.01396" lon="1.99649">
        <ele>10.9</ele>
        <time>2013-08-25T08:59:25Z</time>
      </trkpt>
      <trkpt lat="50.01401" lon="1.99629">
        <ele>1.1</ele>
        <time>2013-08-25T08:59:36Z</time>
      </trkpt>
      <trkpt lat="50.01408" lon="1.99609">
        <ele>2</ele>
        <time>2013-08-25T08:59:45Z</time>
      </trkpt>
      <trkpt lat="50.01419" lon="1.99593">
        <ele>3.3</ele>
        <time>2013-08-25T08:59:57Z</time>
      </trkpt>
      <trkpt lat="50.01428" lon="1.99577">
        <ele>4.4</ele>
        <time>2013-08-25T09:00:09Z</time>
      </trkpt>
      <trkpt lat="50.01435" lon="1.99559">
        <ele>5.3</ele>
        <time>2013-08-25T09:00:17Z</time>
      </trkpt>
      <trkpt lat="50.01446" lon="1.99544">
        <ele>7.4</ele>
        <time>2013-08-25T09:00:31Z</time>
      </trkpt>
      <trkpt lat="50.01457" lon="1.99531">
        <ele>3.3</ele>
        <time>2013-08-25T09:00:39Z</time>
      </trkpt>
      <trkpt lat="50.01467" lon="1.99516">
        <ele>0.9</ele>
        <time>2013-08-25T09:00:49Z</time>
      </trkpt>
      <trkpt lat="50.01479" lon="1.99503">
        <ele>0.2</ele>
        <time>2013-08-25T09:00:58Z</time>
      </trkpt>
      <trkpt lat="50.0149" lon="1.99489">
        <ele>-0.7</ele>
        <time>2013-08-25T09:01:08Z</time>
      </trkpt>
      <trkpt lat="50.01493" lon="1.99475">
        <ele>-1.2</ele>
        <time>2013-08-25T09:01:15Z</time>
      </trkpt>
      <trkpt lat="50.01504" lon="1.99461">
        <ele>-2.2</ele>
        <time>2013-08-25T09:01:26Z</time>
      </trkpt>
      <trkpt lat="50.01514" lon="1.99445">
        <ele>-3</ele>
        <time>2013-08-25T09:01:36Z</time>
      </trkpt>
      <trkpt lat="50.01524" lon="1.99429">
        <ele>-3.7</ele>
        <time>2013-08-25T09:01:45Z</time>
      </trkpt>
      <trkpt lat="50.0153" lon="1.99409">
        <ele>-4.6</ele>
        <time>2013-08-25T09:01:55Z</time>
      </trkpt>
      <trkpt lat="50.0154" lon="1.99395">
        <ele>-2.8</ele>
        <time>2013-08-25T09:02:08Z</time>
      </trkpt>
      <trkpt lat="50.01554" lon="1.99391">
        <ele>-1.4</ele>
        <time>2013-08-25T09:02:17Z</time>
      </trkpt>
      <trkpt lat="50.01561" lon="1.99411">
        <ele>-0.3</ele>
        <time>2013-08-25T09:02:28Z</time>
      </trkpt>
      <trkpt lat="50.01572" lon="1.99424">
        <ele>0.6</ele>
        <time>2013-08-25T09:02:39Z</time>
      </trkpt>
      <trkpt lat="50.01576" lon="1.99444">
        <ele>-4</ele>
        <time>2013-08-25T09:02:48Z</time>
      </trkpt>
      <trkpt lat="50.0158" lon="1.99466">
        <ele>-6.4</ele>
        <time>2013-08-25T09:02:57Z</time>
      </trkpt>
      <trkpt lat="50.01588" lon="1.99483">
        <ele>-8</ele>
        <time>2013-08-25T09:03:08Z</time>
      </trkpt>
      <trkpt lat="50.01596" lon="1.99501">
        <ele>-9</ele>
        <time>2013-08-25T09:03:18Z</time>
      </trkpt>
      <trkpt lat="50.01595" lon="1.99522">
        <ele>-10</ele>
        <time>2013-08-25T09:03:28Z</time>
      </trkpt>
      <trkpt lat="50.01589" lon="1.99542">
        <ele>-10</ele>
        <time>2013-08-25T09:03:38Z</time>
      </trkpt>
      <trkpt lat="50.01578" lon="1.99558">
        <ele>-10</ele>
        <time>2013-08-25T09:03:47Z</time>
      </trkpt>
      <trkpt lat="50.01571" lon="1.99577">
        <ele>-9.5</ele>
        <time>2013-08-25T09:03:56Z</time>
      </trkpt>
      <trkpt lat="50.01561" lon="1.99593">
        <ele>-9.1</ele>
        <time>2013-08-25T09:04:06Z</time>
      </trkpt>
      <trkpt lat="50.01551" lon="1.99609">
        <ele>-8.5</ele>
        <time>2013-08-25T09:04:16Z</time>
      </trkpt>
      <trkpt lat="50.01543" lon="1.99628">
        <ele>-7.9</ele>
        <time>2013-08-25T09:04:28Z</time>
      </trkpt>
      <trkpt lat="50.01543" lon="1.99649">
        <ele>-7.3</ele>
        <time>2013-08-25T09:04:40Z</time>
      </trkpt>
      <trkpt lat="50.01542" lon="1.99671">
        <ele>-6.6</ele>
        <time>2013-08-25T09:04:50Z</time>
      </trkpt>
      <trkpt lat="50.01544" lon="1.99694">
        <ele>-5.5</ele>
        <time>2013-08-25T09:05:01Z</time>
      </trkpt>
      <trkpt lat="50.0154" lon="1.99716">
        <ele>-4.4</ele>
        <time>2013-08-25T09:05:14Z</time>
      </trkpt>
      <trkpt lat="50.01544" lon="1.99738">
        <ele>-3.3</ele>
        <time>2013-08-25T09:05:23Z</time>
      </trkpt>
      <trkpt lat="50.01553" lon="1.99756">
        <ele>-2</ele>
        <time>2013-08-25T09:05:31Z</time>
      </trkpt>
      <trkpt lat="50.01556" lon="1.99776">
        <ele>-1.9</ele>
        <time>2013-08-25T09:05:43Z</time>
      </trkpt>
      <trkpt lat="50.01564" lon="1.99795">
        <ele>-1.3</ele>
        <time>2013-08-25T09:05:53Z</time>
      </trkpt>
      <trkpt lat="50.01571" lon="1.99814">
        <ele>-1.4</ele>
        <time>2013-08-25T09:06:03Z</time>
      </trkpt>
      <trkpt lat="50.0158" lon="1.99832">
        <ele>-1.2</ele>
        <time>2013-08-25T09:06:12Z</time>
      </trkpt>
      <trkpt lat="50.01581" lon="1.99853">
        <ele>0.5</ele>
        <time>2013-08-25T09:06:25Z</time>
      </trkpt>
      <trkpt lat="50.01587" lon="1.99873">
        <ele>-0.5</ele>
        <time>2013-08-25T09:06:34Z</time>
      </trkpt>
      <trkpt lat="50.01592" lon="1.99893">
        <ele>-1.1</ele>
        <time>2013-08-25T09:06:40Z</time>
      </trkpt>
      <trkpt lat="50.01593" lon="1.99911">
        <ele>-2.1</ele>
        <time>2013-08-25T09:06:49Z</time>
      </trkpt>
      <trkpt lat="50.01607" lon="1.99921">
        <ele>-3.1</ele>
        <time>2013-08-25T09:06:57Z</time>
      </trkpt>
      <trkpt lat="50.0163" lon="1.99948">
        <ele>-3.7</ele>
        <time>2013-08-25T09:07:02Z</time>
      </trkpt>
      <trkpt lat="50.01622" lon="1.99956">
        <ele>-5.5</ele>
        <time>2013-08-25T09:07:17Z</time>
      </trkpt>
      <trkpt lat="50.01626" lon="1.99972">
        <ele>-7.2</ele>
        <time>2013-08-25T09:07:31Z</time>
      </trkpt>
      <trkpt lat="50.01626" lon="1.99996">
        <ele>-9</ele>
        <time>2013-08-25T09:07:44Z</time>
      </trkpt>
      <trkpt lat="50.01623" lon="2.00018">
        <ele>-7</ele>
        <time>2013-08-25T09:07:50Z</time>
      </trkpt>
      <trkpt lat="50.0163" lon="2.00037">
        <ele>-7.9</ele>
        <time>2013-08-25T09:08:05Z</time>
      </trkpt>
      <trkpt lat="50.01639" lon="2.00055">
        <ele>-6.1</ele>
        <time>2013-08-25T09:08:16Z</time>
      </trkpt>
      <trkpt lat="50.01646" lon="2.00073">
        <ele>-4.8</ele>
        <time>2013-08-25T09:08:25Z</time>
      </trkpt>
      <trkpt lat="50.0165" lon="2.00095">
        <ele>-2.5</ele>
        <time>2013-08-25T09:08:38Z</time>
      </trkpt>
      <trkpt lat="50.01657" lon="2.00114">
        <ele>1</ele>
        <time>2013-08-25T09:08:46Z</time>
      </trkpt>
      <trkpt lat="50.01657" lon="2.00137">
        <ele>0.5</ele>
        <time>2013-08-25T09:08:57Z</time>
      </trkpt>
      <trkpt lat="50.01665" lon="2.00155">
        <ele>0.6</ele>
        <time>2013-08-25T09:09:07Z</time>
      </trkpt>
      <trkpt lat="50.01664" lon="2.00169">
        <ele>9.1</ele>
        <time>2013-08-25T09:09:13Z</time>
      </trkpt>
      <trkpt lat="50.01672" lon="2.00187">
        <ele>-2.7</ele>
        <time>2013-08-25T09:09:23Z</time>
      </trkpt>
      <trkpt lat="50.01681" lon="2.00205">
        <ele>-1.6</ele>
        <time>2013-08-25T09:09:34Z</time>
      </trkpt>
      <trkpt lat="50.0169" lon="2.00221">
        <ele>-0.4</ele>
        <time>2013-08-25T09:09:43Z</time>
      </trkpt>
      <trkpt lat="50.01692" lon="2.00243">
        <ele>0.9</ele>
        <time>2013-08-25T09:09:56Z</time>
      </trkpt>
      <trkpt lat="50.01698" lon="2.00263">
        <ele>0.2</ele>
        <time>2013-08-25T09:10:07Z</time>
      </trkpt>
      <trkpt lat="50.01708" lon="2.00277">
        <ele>-0.6</ele>
        <time>2013-08-25T09:10:19Z</time>
      </trkpt>
      <trkpt lat="50.01716" lon="2.00295">
        <ele>-1.5</ele>
        <time>2013-08-25T09:10:34Z</time>
      </trkpt>
      <trkpt lat="50.01727" lon="2.00309">
        <ele>-2.5</ele>
        <time>2013-08-25T09:10:50Z</time>
      </trkpt>
      <trkpt lat="50.01736" lon="2.00326">
        <ele>-1.2</ele>
        <time>2013-08-25T09:11:01Z</time>
      </trkpt>
      <trkpt lat="50.01741" lon="2.00347">
        <ele>3</ele>
        <time>2013-08-25T09:11:13Z</time>
      </trkpt>
      <trkpt lat="50.01754" lon="2.00356">
        <ele>1.9</ele>
        <time>2013-08-25T09:11:24Z</time>
      </trkpt>
      <trkpt lat="50.01764" lon="2.00374">
        <ele>0.5</ele>
        <time>2013-08-25T09:11:37Z</time>
      </trkpt>
      <trkpt lat="50.01771" lon="2.00392">
        <ele>-0.5</ele>
        <time>2013-08-25T09:11:47Z</time>
      </trkpt>
      <trkpt lat="50.01782" lon="2.00404">
        <ele>-1.7</ele>
        <time>2013-08-25T09:11:57Z</time>
      </trkpt>
      <trkpt lat="50.01791" lon="2.00421">
        <ele>-9.2</ele>
        <time>2013-08-25T09:12:04Z</time>
      </trkpt>
      <trkpt lat="50.01801" lon="2.00437">
        <ele>-6</ele>
        <time>2013-08-25T09:12:18Z</time>
      </trkpt>
      <trkpt lat="50.01809" lon="2.00455">
        <ele>-3</ele>
        <time>2013-08-25T09:12:26Z</time>
      </trkpt>
      <trkpt lat="50.01819" lon="2.00471">
        <ele>-0.8</ele>
        <time>2013-08-25T09:12:35Z</time>
      </trkpt>
      <trkpt lat="50.01827" lon="2.00489">
        <ele>2</ele>
        <time>2013-08-25T09:12:52Z</time>
      </trkpt>
      <trkpt lat="50.01838" lon="2.00503">
        <ele>3.4</ele>
        <time>2013-08-25T09:13:02Z</time>
      </trkpt>
      <trkpt lat="50.01847" lon="2.00519">
        <ele>2.2</ele>
        <time>2013-08-25T09:13:16Z</time>
      </trkpt>
      <trkpt lat="50.01856" lon="2.00536">
        <ele>2</ele>
        <time>2013-08-25T09:13:25Z</time>
      </trkpt>
      <trkpt lat="50.01861" lon="2.00556">
        <ele>4.1</ele>
        <time>2013-08-25T09:13:33Z</time>
      </trkpt>
      <trkpt lat="50.01872" lon="2.00567">
        <ele>6.2</ele>
        <time>2013-08-25T09:13:45Z</time>
      </trkpt>
      <trkpt lat="50.01884" lon="2.00576">
        <ele>1.8</ele>
        <time>2013-08-25T09:13:54Z</time>
      </trkpt>
      <trkpt lat="50.01898" lon="2.00581">
        <ele>-0.5</ele>
        <time>2013-08-25T09:14:04Z</time>
      </trkpt>
      <trkpt lat="50.01911" lon="2.00588">
        <ele>-0.4</ele>
        <time>2013-08-25T09:14:15Z</time>
      </trkpt>
      <trkpt lat="50.0192" lon="2.00604">
        <ele>0.3</ele>
        <time>2013-08-25T09:14:26Z</time>
      </trkpt>
      <trkpt lat="50.01933" lon="2.00612">
        <ele>1</ele>
        <time>2013-08-25T09:14:35Z</time>
      </trkpt>
      <trkpt lat="50.01946" lon="2.00619">
        <ele>1.5</ele>
        <time>2013-08-25T09:14:45Z</time>
      </trkpt>
      <trkpt lat="50.01958" lon="2.00632">
        <ele>4.5</ele>
        <time>2013-08-25T09:14:55Z</time>
      </trkpt>
      <trkpt lat="50.01967" lon="2.00648">
        <ele>7.4</ele>
        <time>2013-08-25T09:15:06Z</time>
      </trkpt>
      <trkpt lat="50.01981" lon="2.00652">
        <ele>6</ele>
        <time>2013-08-25T09:15:21Z</time>
      </trkpt>
      <trkpt lat="50.01993" lon="2.00665">
        <ele>6.8</ele>
        <time>2013-08-25T09:15:31Z</time>
      </trkpt>
      <trkpt lat="50.02005" lon="2.00675">
        <ele>4.3</ele>
        <time>2013-08-25T09:15:41Z</time>
      </trkpt>
      <trkpt lat="50.02018" lon="2.00684">
        <ele>2.3</ele>
        <time>2013-08-25T09:15:49Z</time>
      </trkpt>
      <trkpt lat="50.02027" lon="2.00702">
        <ele>-1</ele>
        <time>2013-08-25T09:16:01Z</time>
      </trkpt>
      <trkpt lat="50.02036" lon="2.00718">
        <ele>-1.6</ele>
        <time>2013-08-25T09:16:12Z</time>
      </trkpt>
      <trkpt lat="50.02049" lon="2.00728">
        <ele>-3</ele>
        <time>2013-08-25T09:16:24Z</time>
      </trkpt>
      <trkpt lat="50.02055" lon="2.00733">
        <ele>-0.8</ele>
        <time>2013-08-25T09:16:30Z</time>
      </trkpt>
      <trkpt lat="50.02056" lon="2.00711">
        <ele>2.3</ele>
        <time>2013-08-25T09:16:48Z</time>
      </trkpt>
      <trkpt lat="50.02062" lon="2.00691">
        <ele>1</ele>
        <time>2013-08-25T09:17:02Z</time>
      </trkpt>
      <trkpt lat="50.02068" lon="2.00671">
        <ele>0.1</ele>
        <time>2013-08-25T09:17:12Z</time>
      </trkpt>
      <trkpt lat="50.02069" lon="2.00649">
        <ele>-1.9</ele>
        <time>2013-08-25T09:17:27Z</time>
      </trkpt>
      <trkpt lat="50.02074" lon="2.00629">
        <ele>-3.5</ele>
        <time>2013-08-25T09:17:37Z</time>
      </trkpt>
      <trkpt lat="50.02077" lon="2.00607">
        <ele>-6.5</ele>
        <time>2013-08-25T09:17:50Z</time>
      </trkpt>
      <trkpt lat="50.02086" lon="2.0059">
        <ele>-0.2</ele>
        <time>2013-08-25T09:18:09Z</time>
      </trkpt>
      <trkpt lat="50.02092" lon="2.00569">
        <ele>4.5</ele>
        <time>2013-08-25T09:18:29Z</time>
      </trkpt>
      <trkpt lat="50.02101" lon="2.00551">
        <ele>2.7</ele>
        <time>2013-08-25T09:18:43Z</time>
      </trkpt>
      <trkpt lat="50.02096" lon="2.0053">
        <ele>0.7</ele>
        <time>2013-08-25T09:18:54Z</time>
      </trkpt>
      <trkpt lat="50.02102" lon="2.00527">
        <ele>0.2</ele>
        <time>2013-08-25T09:19:04Z</time>
      </trkpt>
      <trkpt lat="50.02105" lon="2.00514">
        <ele>-0.7</ele>
        <time>2013-08-25T09:19:23Z</time>
      </trkpt>
      <trkpt lat="50.02111" lon="2.00493">
        <ele>-1.8</ele>
        <time>2013-08-25T09:19:44Z</time>
      </trkpt>
      <trkpt lat="50.02112" lon="2.00471">
        <ele>-8.3</ele>
        <time>2013-08-25T09:20:05Z</time>
      </trkpt>
      <trkpt lat="50.02117" lon="2.0045">
        <ele>-3.9</ele>
        <time>2013-08-25T09:20:32Z</time>
      </trkpt>
      <trkpt lat="50.02124" lon="2.00431">
        <ele>-0.5</ele>
        <time>2013-08-25T09:20:47Z</time>
      </trkpt>
      <trkpt lat="50.02131" lon="2.00411">
        <ele>-4.4</ele>
        <time>2013-08-25T09:21:00Z</time>
      </trkpt>
      <trkpt lat="50.02138" lon="2.00396">
        <ele>-7.3</ele>
        <time>2013-08-25T09:21:15Z</time>
      </trkpt>
      <trkpt lat="50.02129" lon="2.0038">
        <ele>-6.4</ele>
        <time>2013-08-25T09:21:23Z</time>
      </trkpt>
      <trkpt lat="50.02117" lon="2.00368">
        <ele>-5.3</ele>
        <time>2013-08-25T09:21:34Z</time>
      </trkpt>
      <trkpt lat="50.02102" lon="2.0036">
        <ele>-4.4</ele>
        <time>2013-08-25T09:21:42Z</time>
      </trkpt>
      <trkpt lat="50.02089" lon="2.00353">
        <ele>-4.8</ele>
        <time>2013-08-25T09:21:50Z</time>
      </trkpt>
      <trkpt lat="50.02078" lon="2.00341">
        <ele>-6.8</ele>
        <time>2013-08-25T09:22:00Z</time>
      </trkpt>
      <trkpt lat="50.02066" lon="2.00329">
        <ele>-8.4</ele>
        <time>2013-08-25T09:22:09Z</time>
      </trkpt>
      <trkpt lat="50.02054" lon="2.00317">
        <ele>-9.9</ele>
        <time>2013-08-25T09:22:18Z</time>
      </trkpt>
      <trkpt lat="50.02049" lon="2.00318">
        <ele>-10.5</ele>
        <time>2013-08-25T09:22:27Z</time>
      </trkpt>
      <trkpt lat="50.02039" lon="2.00304">
        <ele>-8</ele>
        <time>2013-08-25T09:22:41Z</time>
      </trkpt>
      <trkpt lat="50.02026" lon="2.00294">
        <ele>-5.2</ele>
        <time>2013-08-25T09:22:55Z</time>
      </trkpt>
      <trkpt lat="50.02012" lon="2.00285">
        <ele>-6.2</ele>
        <time>2013-08-25T09:23:06Z</time>
      </trkpt>
      <trkpt lat="50.02" lon="2.00272">
        <ele>-7.2</ele>
        <time>2013-08-25T09:23:16Z</time>
      </trkpt>
      <trkpt lat="50.01991" lon="2.00256">
        <ele>-7.7</ele>
        <time>2013-08-25T09:23:28Z</time>
      </trkpt>
      <trkpt lat="50.01978" lon="2.00246">
        <ele>-6.4</ele>
        <time>2013-08-25T09:23:40Z</time>
      </trkpt>
      <trkpt lat="50.01967" lon="2.00233">
        <ele>-5.3</ele>
        <time>2013-08-25T09:23:50Z</time>
      </trkpt>
      <trkpt lat="50.01957" lon="2.00218">
        <ele>-6.3</ele>
        <time>2013-08-25T09:24:05Z</time>
      </trkpt>
      <trkpt lat="50.01944" lon="2.00207">
        <ele>-8</ele>
        <time>2013-08-25T09:24:19Z</time>
      </trkpt>
      <trkpt lat="50.01931" lon="2.002">
        <ele>-9.3</ele>
        <time>2013-08-25T09:24:28Z</time>
      </trkpt>
      <trkpt lat="50.01918" lon="2.00193">
        <ele>-13.2</ele>
        <time>2013-08-25T09:24:39Z</time>
      </trkpt>
      <trkpt lat="50.01906" lon="2.00183">
        <ele>-13.5</ele>
        <time>2013-08-25T09:24:56Z</time>
      </trkpt>
      <trkpt lat="50.01895" lon="2.00167">
        <ele>-12.7</ele>
        <time>2013-08-25T09:25:03Z</time>
      </trkpt>
      <trkpt lat="50.01882" lon="2.00153">
        <ele>-12.2</ele>
        <time>2013-08-25T09:25:14Z</time>
      </trkpt>
      <trkpt lat="50.01873" lon="2.00137">
        <ele>-13.1</ele>
        <time>2013-08-25T09:25:26Z</time>
      </trkpt>
      <trkpt lat="50.01863" lon="2.0012">
        <ele>-13.8</ele>
        <time>2013-08-25T09:25:36Z</time>
      </trkpt>
      <trkpt lat="50.01851" lon="2.00109">
        <ele>-14.6</ele>
        <time>2013-08-25T09:25:45Z</time>
      </trkpt>
      <trkpt lat="50.01844" lon="2.00091">
        <ele>-14.1</ele>
        <time>2013-08-25T09:25:55Z</time>
      </trkpt>
      <trkpt lat="50.01832" lon="2.0008">
        <ele>-12</ele>
        <time>2013-08-25T09:26:07Z</time>
      </trkpt>
      <trkpt lat="50.01822" lon="2.00064">
        <ele>-10.8</ele>
        <time>2013-08-25T09:26:18Z</time>
      </trkpt>
      <trkpt lat="50.01811" lon="2.00049">
        <ele>-9.7</ele>
        <time>2013-08-25T09:26:28Z</time>
      </trkpt>
      <trkpt lat="50.01803" lon="2.00031">
        <ele>-8.9</ele>
        <time>2013-08-25T09:26:37Z</time>
      </trkpt>
      <trkpt lat="50.01791" lon="2.00018">
        <ele>-8.3</ele>
        <time>2013-08-25T09:26:47Z</time>
      </trkpt>
      <trkpt lat="50.01778" lon="2.00009">
        <ele>-7.7</ele>
        <time>2013-08-25T09:26:58Z</time>
      </trkpt>
      <trkpt lat="50.01769" lon="1.99992">
        <ele>-7.1</ele>
        <time>2013-08-25T09:27:09Z</time>
      </trkpt>
      <trkpt lat="50.01758" lon="1.99978">
        <ele>-6.4</ele>
        <time>2013-08-25T09:27:22Z</time>
      </trkpt>
      <trkpt lat="50.01751" lon="1.99959">
        <ele>-7.8</ele>
        <time>2013-08-25T09:27:33Z</time>
      </trkpt>
      <trkpt lat="50.01742" lon="1.99941">
        <ele>-6.8</ele>
        <time>2013-08-25T09:27:42Z</time>
      </trkpt>
      <trkpt lat="50.01748" lon="1.99921">
        <ele>-4.3</ele>
        <time>2013-08-25T09:27:56Z</time>
      </trkpt>
      <trkpt lat="50.01751" lon="1.99898">
        <ele>-2.5</ele>
        <time>2013-08-25T09:28:06Z</time>
      </trkpt>
      <trkpt lat="50.01752" lon="1.99874">
        <ele>0.2</ele>
        <time>2013-08-25T09:28:18Z</time>
      </trkpt>
      <trkpt lat="50.01746" lon="1.99854">
        <ele>-2.2</ele>
        <time>2013-08-25T09:28:34Z</time>
      </trkpt>
      <trkpt lat="50.01739" lon="1.99835">
        <ele>0.4</ele>
        <time>2013-08-25T09:28:44Z</time>
      </trkpt>
      <trkpt lat="50.01727" lon="1.99822">
        <ele>0.4</ele>
        <time>2013-08-25T09:28:50Z</time>
      </trkpt>
      <trkpt lat="50.01718" lon="1.99806">
        <ele>-1.3</ele>
        <time>2013-08-25T09:29:02Z</time>
      </trkpt>
      <trkpt lat="50.01716" lon="1.99784">
        <ele>-3.3</ele>
        <time>2013-08-25T09:29:16Z</time>
      </trkpt>
      <trkpt lat="50.01714" lon="1.99762">
        <ele>-5.1</ele>
        <time>2013-08-25T09:29:27Z</time>
      </trkpt>
      <trkpt lat="50.01706" lon="1.99744">
        <ele>-7.2</ele>
        <time>2013-08-25T09:29:38Z</time>
      </trkpt>
      <trkpt lat="50.01696" lon="1.99728">
        <ele>-8.9</ele>
        <time>2013-08-25T09:29:47Z</time>
      </trkpt>
      <trkpt lat="50.01687" lon="1.99711">
        <ele>-7.8</ele>
        <time>2013-08-25T09:29:59Z</time>
      </trkpt>
      <trkpt lat="50.01682" lon="1.99689">
        <ele>-5.8</ele>
        <time>2013-08-25T09:30:07Z</time>
      </trkpt>
      <trkpt lat="50.01674" lon="1.99671">
        <ele>-5.3</ele>
        <time>2013-08-25T09:30:16Z</time>
      </trkpt>
      <trkpt lat="50.01664" lon="1.99656">
        <ele>-4.8</ele>
        <time>2013-08-25T09:30:24Z</time>
      </trkpt>
      <trkpt lat="50.01662" lon="1.99633">
        <ele>-3.8</ele>
        <time>2013-08-25T09:30:39Z</time>
      </trkpt>
      <trkpt lat="50.01649" lon="1.99621">
        <ele>-3.1</ele>
        <time>2013-08-25T09:30:50Z</time>
      </trkpt>
      <trkpt lat="50.01637" lon="1.99608">
        <ele>-1.9</ele>
        <time>2013-08-25T09:30:58Z</time>
      </trkpt>
      <trkpt lat="50.01629" lon="1.99591">
        <ele>-6</ele>
        <time>2013-08-25T09:31:08Z</time>
      </trkpt>
      <trkpt lat="50.01619" lon="1.99575">
        <ele>-6.3</ele>
        <time>2013-08-25T09:31:19Z</time>
      </trkpt>
      <trkpt lat="50.01608" lon="1.99559">
        <ele>-3.3</ele>
        <time>2013-08-25T09:31:28Z</time>
      </trkpt>
      <trkpt lat="50.01604" lon="1.99538">
        <ele>-2</ele>
        <time>2013-08-25T09:31:41Z</time>
      </trkpt>
      <trkpt lat="50.01605" lon="1.99516">
        <ele>-1.1</ele>
        <time>2013-08-25T09:31:51Z</time>
      </trkpt>
      <trkpt lat="50.0161" lon="1.99495">
        <ele>-0.2</ele>
        <time>2013-08-25T09:32:02Z</time>
      </trkpt>
      <trkpt lat="50.01619" lon="1.99475">
        <ele>1</ele>
        <time>2013-08-25T09:32:16Z</time>
      </trkpt>
      <trkpt lat="50.01628" lon="1.99458">
        <ele>0.2</ele>
        <time>2013-08-25T09:32:23Z</time>
      </trkpt>
      <trkpt lat="50.01636" lon="1.99441">
        <ele>2.3</ele>
        <time>2013-08-25T09:32:34Z</time>
      </trkpt>
      <trkpt lat="50.01646" lon="1.99424">
        <ele>4</ele>
        <time>2013-08-25T09:32:44Z</time>
      </trkpt>
      <trkpt lat="50.01653" lon="1.99405">
        <ele>4.3</ele>
        <time>2013-08-25T09:32:52Z</time>
      </trkpt>
      <trkpt lat="50.01662" lon="1.99387">
        <ele>10.3</ele>
        <time>2013-08-25T09:32:59Z</time>
      </trkpt>
      <trkpt lat="50.01671" lon="1.99371">
        <ele>12.6</ele>
        <time>2013-08-25T09:33:09Z</time>
      </trkpt>
      <trkpt lat="50.0168" lon="1.99352">
        <ele>13.6</ele>
        <time>2013-08-25T09:33:20Z</time>
      </trkpt>
      <trkpt lat="50.01686" lon="1.99334">
        <ele>14.6</ele>
        <time>2013-08-25T09:33:31Z</time>
      </trkpt>
      <trkpt lat="50.01695" lon="1.99316">
        <ele>14.2</ele>
        <time>2013-08-25T09:33:41Z</time>
      </trkpt>
      <trkpt lat="50.01698" lon="1.99302">
        <ele>13.1</ele>
        <time>2013-08-25T09:33:49Z</time>
      </trkpt>
      <trkpt lat="50.01709" lon="1.99292">
        <ele>11.7</ele>
        <time>2013-08-25T09:34:00Z</time>
      </trkpt>
      <trkpt lat="50.01717" lon="1.99273">
        <ele>10.9</ele>
        <time>2013-08-25T09:34:10Z</time>
      </trkpt>
      <trkpt lat="50.01728" lon="1.99259">
        <ele>9.6</ele>
        <time>2013-08-25T09:34:24Z</time>
      </trkpt>
      <trkpt lat="50.01734" lon="1.99238">
        <ele>8.4</ele>
        <time>2013-08-25T09:34:34Z</time>
      </trkpt>
      <trkpt lat="50.01739" lon="1.99216">
        <ele>7</ele>
        <time>2013-08-25T09:34:45Z</time>
      </trkpt>
      <trkpt lat="50.01746" lon="1.99197">
        <ele>7.2</ele>
        <time>2013-08-25T09:34:54Z</time>
      </trkpt>
      <trkpt lat="50.01754" lon="1.9918">
        <ele>8.9</ele>
        <time>2013-08-25T09:35:03Z</time>
      </trkpt>
      <trkpt lat="50.01761" lon="1.99162">
        <ele>9.7</ele>
        <time>2013-08-25T09:35:13Z</time>
      </trkpt>
      <trkpt lat="50.01769" lon="1.99143">
        <ele>8.7</ele>
        <time>2013-08-25T09:35:24Z</time>
      </trkpt>
      <trkpt lat="50.01776" lon="1.99124">
        <ele>7.6</ele>
        <time>2013-08-25T09:35:36Z</time>
      </trkpt>
      <trkpt lat="50.01788" lon="1.99115">
        <ele>7.8</ele>
        <time>2013-08-25T09:35:50Z</time>
      </trkpt>
      <trkpt lat="50.01802" lon="1.99119">
        <ele>9</ele>
        <time>2013-08-25T09:35:58Z</time>
      </trkpt>
      <trkpt lat="50.01814" lon="1.99127">
        <ele>10.5</ele>
        <time>2013-08-25T09:36:09Z</time>
      </trkpt>
      <trkpt lat="50.01828" lon="1.99134">
        <ele>12.5</ele>
        <time>2013-08-25T09:36:20Z</time>
      </trkpt>
      <trkpt lat="50.01842" lon="1.99138">
        <ele>11</ele>
        <time>2013-08-25T09:36:29Z</time>
      </trkpt>
      <trkpt lat="50.01856" lon="1.99148">
        <ele>6.7</ele>
        <time>2013-08-25T09:36:38Z</time>
      </trkpt>
      <trkpt lat="50.01869" lon="1.99156">
        <ele>5</ele>
        <time>2013-08-25T09:36:48Z</time>
      </trkpt>
      <trkpt lat="50.01879" lon="1.99172">
        <ele>3.7</ele>
        <time>2013-08-25T09:36:58Z</time>
      </trkpt>
      <trkpt lat="50.01894" lon="1.99178">
        <ele>2.7</ele>
        <time>2013-08-25T09:37:08Z</time>
      </trkpt>
      <trkpt lat="50.01904" lon="1.99191">
        <ele>2.1</ele>
        <time>2013-08-25T09:37:18Z</time>
      </trkpt>
      <trkpt lat="50.01918" lon="1.99198">
        <ele>2.7</ele>
        <time>2013-08-25T09:37:31Z</time>
      </trkpt>
      <trkpt lat="50.01932" lon="1.99193">
        <ele>2.8</ele>
        <time>2013-08-25T09:37:38Z</time>
      </trkpt>
      <trkpt lat="50.01945" lon="1.99203">
        <ele>1.7</ele>
        <time>2013-08-25T09:37:47Z</time>
      </trkpt>
      <trkpt lat="50.01955" lon="1.99221">
        <ele>0.9</ele>
        <time>2013-08-25T09:37:55Z</time>
      </trkpt>
      <trkpt lat="50.01968" lon="1.99231">
        <ele>-0.9</ele>
        <time>2013-08-25T09:38:10Z</time>
      </trkpt>
      <trkpt lat="50.01975" lon="1.99251">
        <ele>-1.9</ele>
        <time>2013-08-25T09:38:17Z</time>
      </trkpt>
      <trkpt lat="50.01981" lon="1.9927">
        <ele>-3.1</ele>
        <time>2013-08-25T09:38:26Z</time>
      </trkpt>
      <trkpt lat="50.01984" lon="1.99292">
        <ele>-3.5</ele>
        <time>2013-08-25T09:38:36Z</time>
      </trkpt>
      <trkpt lat="50.01994" lon="1.99308">
        <ele>-1.9</ele>
        <time>2013-08-25T09:38:45Z</time>
      </trkpt>
      <trkpt lat="50.02004" lon="1.99325">
        <ele>8</ele>
        <time>2013-08-25T09:38:52Z</time>
      </trkpt>
      <trkpt lat="50.02014" lon="1.99339">
        <ele>3.4</ele>
        <time>2013-08-25T09:39:06Z</time>
      </trkpt>
      <trkpt lat="50.02022" lon="1.9936">
        <ele>5.2</ele>
        <time>2013-08-25T09:39:19Z</time>
      </trkpt>
      <trkpt lat="50.0203" lon="1.99379">
        <ele>7.3</ele>
        <time>2013-08-25T09:39:27Z</time>
      </trkpt>
      <trkpt lat="50.02041" lon="1.99391">
        <ele>12.5</ele>
        <time>2013-08-25T09:39:40Z</time>
      </trkpt>
      <trkpt lat="50.02053" lon="1.99404">
        <ele>16</ele>
        <time>2013-08-25T09:39:52Z</time>
      </trkpt>
      <trkpt lat="50.02062" lon="1.99422">
        <ele>13.9</ele>
        <time>2013-08-25T09:40:03Z</time>
      </trkpt>
      <trkpt lat="50.02073" lon="1.99436">
        <ele>11.6</ele>
        <time>2013-08-25T09:40:14Z</time>
      </trkpt>
      <trkpt lat="50.02086" lon="1.99448">
        <ele>9.1</ele>
        <time>2013-08-25T09:40:25Z</time>
      </trkpt>
      <trkpt lat="50.02099" lon="1.99456">
        <ele>7.7</ele>
        <time>2013-08-25T09:40:35Z</time>
      </trkpt>
      <trkpt lat="50.02108" lon="1.99473">
        <ele>7</ele>
        <time>2013-08-25T09:40:44Z</time>
      </trkpt>
      <trkpt lat="50.0212" lon="1.99486">
        <ele>4</ele>
        <time>2013-08-25T09:40:56Z</time>
      </trkpt>
      <trkpt lat="50.02134" lon="1.99482">
        <ele>3.6</ele>
        <time>2013-08-25T09:41:06Z</time>
      </trkpt>
      <trkpt lat="50.02144" lon="1.99467">
        <ele>3.3</ele>
        <time>2013-08-25T09:41:16Z</time>
      </trkpt>
      <trkpt lat="50.02153" lon="1.9945">
        <ele>3.3</ele>
        <time>2013-08-25T09:41:26Z</time>
      </trkpt>
      <trkpt lat="50.02156" lon="1.99427">
        <ele>4.8</ele>
        <time>2013-08-25T09:41:38Z</time>
      </trkpt>
      <trkpt lat="50.02165" lon="1.9941">
        <ele>6</ele>
        <time>2013-08-25T09:41:47Z</time>
      </trkpt>
      <trkpt lat="50.02175" lon="1.99395">
        <ele>7.6</ele>
        <time>2013-08-25T09:41:58Z</time>
      </trkpt>
      <trkpt lat="50.02185" lon="1.99378">
        <ele>10</ele>
        <time>2013-08-25T09:42:18Z</time>
      </trkpt>
      <trkpt lat="50.02193" lon="1.99358">
        <ele>7.6</ele>
        <time>2013-08-25T09:42:23Z</time>
      </trkpt>
      <trkpt lat="50.02201" lon="1.9935">
        <ele>8</ele>
        <time>2013-08-25T09:42:31Z</time>
      </trkpt>
      <trkpt lat="50.02203" lon="1.99328">
        <ele>9.4</ele>
        <time>2013-08-25T09:42:41Z</time>
      </trkpt>
      <trkpt lat="50.02213" lon="1.99314">
        <ele>10.9</ele>
        <time>2013-08-25T09:42:51Z</time>
      </trkpt>
      <trkpt lat="50.02226" lon="1.99302">
        <ele>10.6</ele>
        <time>2013-08-25T09:43:00Z</time>
      </trkpt>
      <trkpt lat="50.02236" lon="1.99288">
        <ele>10.1</ele>
        <time>2013-08-25T09:43:11Z</time>
      </trkpt>
      <trkpt lat="50.02241" lon="1.99267">
        <ele>9.7</ele>
        <time>2013-08-25T09:43:22Z</time>
      </trkpt>
      <trkpt lat="50.02252" lon="1.99254">
        <ele>9.2</ele>
        <time>2013-08-25T09:43:31Z</time>
      </trkpt>
      <trkpt lat="50.0226" lon="1.99237">
        <ele>8.7</ele>
        <time>2013-08-25T09:43:43Z</time>
      </trkpt>
      <trkpt lat="50.02269" lon="1.99221">
        <ele>8.3</ele>
        <time>2013-08-25T09:43:53Z</time>
      </trkpt>
      <trkpt lat="50.0228" lon="1.99207">
        <ele>7.8</ele>
        <time>2013-08-25T09:44:03Z</time>
      </trkpt>
      <trkpt lat="50.02288" lon="1.99188">
        <ele>7.3</ele>
        <time>2013-08-25T09:44:14Z</time>
      </trkpt>
      <trkpt lat="50.02302" lon="1.99182">
        <ele>7</ele>
        <time>2013-08-25T09:44:21Z</time>
      </trkpt>
      <trkpt lat="50.02308" lon="1.99162">
        <ele>5.4</ele>
        <time>2013-08-25T09:44:36Z</time>
      </trkpt>
      <trkpt lat="50.0232" lon="1.99153">
        <ele>4.2</ele>
        <time>2013-08-25T09:44:47Z</time>
      </trkpt>
      <trkpt lat="50.02333" lon="1.99145">
        <ele>3.8</ele>
        <time>2013-08-25T09:45:01Z</time>
      </trkpt>
      <trkpt lat="50.02346" lon="1.99141">
        <ele>6</ele>
        <time>2013-08-25T09:45:09Z</time>
      </trkpt>
      <trkpt lat="50.02361" lon="1.99139">
        <ele>3.9</ele>
        <time>2013-08-25T09:45:18Z</time>
      </trkpt>
      <trkpt lat="50.02374" lon="1.99128">
        <ele>4.5</ele>
        <time>2013-08-25T09:45:33Z</time>
      </trkpt>
      <trkpt lat="50.02388" lon="1.99132">
        <ele>4.8</ele>
        <time>2013-08-25T09:45:42Z</time>
      </trkpt>
      <trkpt lat="50.02404" lon="1.99133">
        <ele>3.3</ele>
        <time>2013-08-25T09:45:49Z</time>
      </trkpt>
      <trkpt lat="50.02418" lon="1.99137">
        <ele>1.5</ele>
        <time>2013-08-25T09:45:57Z</time>
      </trkpt>
      <trkpt lat="50.02433" lon="1.99137">
        <ele>3.6</ele>
        <time>2013-08-25T09:46:13Z</time>
      </trkpt>
      <trkpt lat="50.02445" lon="1.99147">
        <ele>4.7</ele>
        <time>2013-08-25T09:46:24Z</time>
      </trkpt>
      <trkpt lat="50.02455" lon="1.99163">
        <ele>3.7</ele>
        <time>2013-08-25T09:46:35Z</time>
      </trkpt>
      <trkpt lat="50.02469" lon="1.99167">
        <ele>2.9</ele>
        <time>2013-08-25T09:46:43Z</time>
      </trkpt>
      <trkpt lat="50.02483" lon="1.9917">
        <ele>2.2</ele>
        <time>2013-08-25T09:46:52Z</time>
      </trkpt>
      <trkpt lat="50.02496" lon="1.99174">
        <ele>4.6</ele>
        <time>2013-08-25T09:47:05Z</time>
      </trkpt>
      <trkpt lat="50.02509" lon="1.99185">
        <ele>3.5</ele>
        <time>2013-08-25T09:47:20Z</time>
      </trkpt>
      <trkpt lat="50.02521" lon="1.99196">
        <ele>7.1</ele>
        <time>2013-08-25T09:47:30Z</time>
      </trkpt>
      <trkpt lat="50.02535" lon="1.99202">
        <ele>7.6</ele>
        <time>2013-08-25T09:47:41Z</time>
      </trkpt>
      <trkpt lat="50.02549" lon="1.99207">
        <ele>8</ele>
        <time>2013-08-25T09:47:50Z</time>
      </trkpt>
      <trkpt lat="50.02563" lon="1.99206">
        <ele>8.3</ele>
        <time>2013-08-25T09:47:59Z</time>
      </trkpt>
      <trkpt lat="50.02576" lon="1.99215">
        <ele>8.8</ele>
        <time>2013-08-25T09:48:08Z</time>
      </trkpt>
      <trkpt lat="50.02588" lon="1.99203">
        <ele>9.3</ele>
        <time>2013-08-25T09:48:21Z</time>
      </trkpt>
      <trkpt lat="50.02598" lon="1.99188">
        <ele>9.8</ele>
        <time>2013-08-25T09:48:32Z</time>
      </trkpt>
      <trkpt lat="50.02608" lon="1.99174">
        <ele>10.2</ele>
        <time>2013-08-25T09:48:42Z</time>
      </trkpt>
      <trkpt lat="50.02619" lon="1.99161">
        <ele>10.8</ele>
        <time>2013-08-25T09:48:56Z</time>
      </trkpt>
      <trkpt lat="50.02631" lon="1.99152">
        <ele>7.7</ele>
        <time>2013-08-25T09:49:07Z</time>
      </trkpt>
      <trkpt lat="50.02643" lon="1.99138">
        <ele>6.4</ele>
        <time>2013-08-25T09:49:17Z</time>
      </trkpt>
      <trkpt lat="50.02653" lon="1.99123">
        <ele>5.3</ele>
        <time>2013-08-25T09:49:25Z</time>
      </trkpt>
      <trkpt lat="50.02666" lon="1.99116">
        <ele>4.6</ele>
        <time>2013-08-25T09:49:32Z</time>
      </trkpt>
      <trkpt lat="50.02671" lon="1.99095">
        <ele>3.4</ele>
        <time>2013-08-25T09:49:41Z</time>
      </trkpt>
      <trkpt lat="50.02676" lon="1.99074">
        <ele>2</ele>
        <time>2013-08-25T09:49:55Z</time>
      </trkpt>
      <trkpt lat="50.0268" lon="1.99053">
        <ele>2</ele>
        <time>2013-08-25T09:50:05Z</time>
      </trkpt>
      <trkpt lat="50.02685" lon="1.99031">
        <ele>-0.5</ele>
        <time>2013-08-25T09:50:18Z</time>
      </trkpt>
      <trkpt lat="50.0269" lon="1.99011">
        <ele>5.3</ele>
        <time>2013-08-25T09:50:32Z</time>
      </trkpt>
      <trkpt lat="50.0269" lon="1.9899">
        <ele>6.5</ele>
        <time>2013-08-25T09:50:42Z</time>
      </trkpt>
      <trkpt lat="50.02689" lon="1.98967">
        <ele>8.7</ele>
        <time>2013-08-25T09:51:01Z</time>
      </trkpt>
      <trkpt lat="50.02684" lon="1.98947">
        <ele>10.2</ele>
        <time>2013-08-25T09:51:11Z</time>
      </trkpt>
      <trkpt lat="50.02676" lon="1.98928">
        <ele>11</ele>
        <time>2013-08-25T09:51:23Z</time>
      </trkpt>
      <trkpt lat="50.02665" lon="1.98915">
        <ele>7.9</ele>
        <time>2013-08-25T09:51:33Z</time>
      </trkpt>
      <trkpt lat="50.02655" lon="1.98901">
        <ele>5.6</ele>
        <time>2013-08-25T09:51:46Z</time>
      </trkpt>
      <trkpt lat="50.02644" lon="1.98886">
        <ele>4.1</ele>
        <time>2013-08-25T09:51:57Z</time>
      </trkpt>
      <trkpt lat="50.02633" lon="1.98873">
        <ele>3</ele>
        <time>2013-08-25T09:52:07Z</time>
      </trkpt>
      <trkpt lat="50.0262" lon="1.98861">
        <ele>2.3</ele>
        <time>2013-08-25T09:52:17Z</time>
      </trkpt>
      <trkpt lat="50.02607" lon="1.98852">
        <ele>5.2</ele>
        <time>2013-08-25T09:52:28Z</time>
      </trkpt>
      <trkpt lat="50.02595" lon="1.9884">
        <ele>6.8</ele>
        <time>2013-08-25T09:52:37Z</time>
      </trkpt>
      <trkpt lat="50.02585" lon="1.98826">
        <ele>7.5</ele>
        <time>2013-08-25T09:52:48Z</time>
      </trkpt>
      <trkpt lat="50.02573" lon="1.98814">
        <ele>6.5</ele>
        <time>2013-08-25T09:52:59Z</time>
      </trkpt>
      <trkpt lat="50.0256" lon="1.988">
        <ele>5.4</ele>
        <time>2013-08-25T09:53:09Z</time>
      </trkpt>
      <trkpt lat="50.02548" lon="1.98786">
        <ele>4.2</ele>
        <time>2013-08-25T09:53:22Z</time>
      </trkpt>
      <trkpt lat="50.02536" lon="1.98779">
        <ele>4.6</ele>
        <time>2013-08-25T09:53:31Z</time>
      </trkpt>
      <trkpt lat="50.02523" lon="1.98766">
        <ele>5.5</ele>
        <time>2013-08-25T09:53:42Z</time>
      </trkpt>
      <trkpt lat="50.02511" lon="1.98755">
        <ele>6.6</ele>
        <time>2013-08-25T09:53:53Z</time>
      </trkpt>
      <trkpt lat="50.02499" lon="1.98743">
        <ele>4</ele>
        <time>2013-08-25T09:54:04Z</time>
      </trkpt>
      <trkpt lat="50.02484" lon="1.98735">
        <ele>4.5</ele>
        <time>2013-08-25T09:54:15Z</time>
      </trkpt>
      <trkpt lat="50.02471" lon="1.98726">
        <ele>4.8</ele>
        <time>2013-08-25T09:54:23Z</time>
      </trkpt>
      <trkpt lat="50.02459" lon="1.98718">
        <ele>5.2</ele>
        <time>2013-08-25T09:54:35Z</time>
      </trkpt>
      <trkpt lat="50.02445" lon="1.9871">
        <ele>5.6</ele>
        <time>2013-08-25T09:54:44Z</time>
      </trkpt>
      <trkpt lat="50.02433" lon="1.98699">
        <ele>6</ele>
        <time>2013-08-25T09:54:55Z</time>
      </trkpt>
      <trkpt lat="50.02421" lon="1.98687">
        <ele>6.4</ele>
        <time>2013-08-25T09:55:07Z</time>
      </trkpt>
      <trkpt lat="50.02409" lon="1.98677">
        <ele>6.8</ele>
        <time>2013-08-25T09:55:19Z</time>
      </trkpt>
      <trkpt lat="50.02395" lon="1.98681">
        <ele>7.9</ele>
        <time>2013-08-25T09:55:30Z</time>
      </trkpt>
      <trkpt lat="50.02383" lon="1.98691">
        <ele>8.8</ele>
        <time>2013-08-25T09:55:40Z</time>
      </trkpt>
      <trkpt lat="50.02369" lon="1.98701">
        <ele>9.9</ele>
        <time>2013-08-25T09:55:50Z</time>
      </trkpt>
      <trkpt lat="50.02359" lon="1.98716">
        <ele>6.5</ele>
        <time>2013-08-25T09:56:06Z</time>
      </trkpt>
      <trkpt lat="50.02345" lon="1.98723">
        <ele>8.7</ele>
        <time>2013-08-25T09:56:16Z</time>
      </trkpt>
      <trkpt lat="50.02333" lon="1.98733">
        <ele>10.5</ele>
        <time>2013-08-25T09:56:23Z</time>
      </trkpt>
      <trkpt lat="50.0232" lon="1.98742">
        <ele>12</ele>
        <time>2013-08-25T09:56:34Z</time>
      </trkpt>
      <trkpt lat="50.02307" lon="1.9875">
        <ele>14.3</ele>
        <time>2013-08-25T09:56:45Z</time>
      </trkpt>
      <trkpt lat="50.02293" lon="1.98758">
        <ele>15</ele>
        <time>2013-08-25T09:56:56Z</time>
      </trkpt>
      <trkpt lat="50.0228" lon="1.98769">
        <ele>12.8</ele>
        <time>2013-08-25T09:57:06Z</time>
      </trkpt>
      <trkpt lat="50.02268" lon="1.9878">
        <ele>13.9</ele>
        <time>2013-08-25T09:57:16Z</time>
      </trkpt>
      <trkpt lat="50.02255" lon="1.98788">
        <ele>15</ele>
        <time>2013-08-25T09:57:28Z</time>
      </trkpt>
      <trkpt lat="50.0224" lon="1.98793">
        <ele>11</ele>
        <time>2013-08-25T09:57:38Z</time>
      </trkpt>
      <trkpt lat="50.02226" lon="1.9879">
        <ele>12.4</ele>
        <time>2013-08-25T09:57:49Z</time>
      </trkpt>
      <trkpt lat="50.02219" lon="1.98783">
        <ele>13.3</ele>
        <time>2013-08-25T09:57:54Z</time>
      </trkpt>
      <trkpt lat="50.0221" lon="1.98764">
        <ele>13.3</ele>
        <time>2013-08-25T09:58:06Z</time>
      </trkpt>
      <trkpt lat="50.02197" lon="1.98753">
        <ele>12.3</ele>
        <time>2013-08-25T09:58:16Z</time>
      </trkpt>
      <trkpt lat="50.02186" lon="1.98739">
        <ele>11.3</ele>
        <time>2013-08-25T09:58:24Z</time>
      </trkpt>
      <trkpt lat="50.02175" lon="1.98726">
        <ele>10.8</ele>
        <time>2013-08-25T09:58:34Z</time>
      </trkpt>
      <trkpt lat="50.02163" lon="1.98715">
        <ele>10.4</ele>
        <time>2013-08-25T09:58:43Z</time>
      </trkpt>
      <trkpt lat="50.02152" lon="1.98702">
        <ele>10</ele>
        <time>2013-08-25T09:58:55Z</time>
      </trkpt>
      <trkpt lat="50.02141" lon="1.98687">
        <ele>9.6</ele>
        <time>2013-08-25T09:59:06Z</time>
      </trkpt>
      <trkpt lat="50.0213" lon="1.98672">
        <ele>9.2</ele>
        <time>2013-08-25T09:59:17Z</time>
      </trkpt>
      <trkpt lat="50.02119" lon="1.98659">
        <ele>8.8</ele>
        <time>2013-08-25T09:59:27Z</time>
      </trkpt>
      <trkpt lat="50.02107" lon="1.98645">
        <ele>8.4</ele>
        <time>2013-08-25T09:59:38Z</time>
      </trkpt>
      <trkpt lat="50.02097" lon="1.98629">
        <ele>8</ele>
        <time>2013-08-25T09:59:51Z</time>
      </trkpt>
      <trkpt lat="50.02087" lon="1.98614">
        <ele>11.1</ele>
        <time>2013-08-25T10:00:01Z</time>
      </trkpt>
      <trkpt lat="50.02077" lon="1.98599">
        <ele>12.5</ele>
        <time>2013-08-25T10:00:12Z</time>
      </trkpt>
      <trkpt lat="50.02068" lon="1.98582">
        <ele>11.5</ele>
        <time>2013-08-25T10:00:23Z</time>
      </trkpt>
      <trkpt lat="50.0207" lon="1.9856">
        <ele>9.5</ele>
        <time>2013-08-25T10:00:44Z</time>
      </trkpt>
      <trkpt lat="50.0208" lon="1.98544">
        <ele>9.5</ele>
        <time>2013-08-25T10:00:55Z</time>
      </trkpt>
      <trkpt lat="50.0209" lon="1.98531">
        <ele>10.5</ele>
        <time>2013-08-25T10:01:06Z</time>
      </trkpt>
      <trkpt lat="50.02096" lon="1.98512">
        <ele>11.5</ele>
        <time>2013-08-25T10:01:17Z</time>
      </trkpt>
      <trkpt lat="50.02094" lon="1.98503">
        <ele>14.2</ele>
        <time>2013-08-25T10:01:28Z</time>
      </trkpt>
      <trkpt lat="50.0209" lon="1.98487">
        <ele>11.5</ele>
        <time>2013-08-25T10:01:43Z</time>
      </trkpt>
      <trkpt lat="50.02079" lon="1.98501">
        <ele>8.4</ele>
        <time>2013-08-25T10:01:51Z</time>
      </trkpt>
      <trkpt lat="50.02084" lon="1.98523">
        <ele>9</ele>
        <time>2013-08-25T10:01:59Z</time>
      </trkpt>
      <trkpt lat="50.02092" lon="1.98514">
        <ele>11.2</ele>
        <time>2013-08-25T10:02:11Z</time>
      </trkpt>
      <trkpt lat="50.02086" lon="1.98506">
        <ele>12.7</ele>
        <time>2013-08-25T10:02:24Z</time>
      </trkpt>
      <trkpt lat="50.021" lon="1.98501">
        <ele>16</ele>
        <time>2013-08-25T10:02:38Z</time>
      </trkpt>
      <trkpt lat="50.02088" lon="1.98509">
        <ele>13</ele>
        <time>2013-08-25T10:03:12Z</time>
      </trkpt>
    </trkseg>
  </trk>
</gpx>